<?xml version="1.0" encoding="UTF-8" standalone="no" ?>
<gpx xmlns="http://www.topografix.com/GPX/1/1" xmlns:xsi="http://www.w3.org/2001/XMLSchema-instance" xsi:schemaLocation="http://www.topografix.com/GPX/1/1 http://www.topografix.com/GPX/1/1/gpx.xsd" version="1.1" creator="VisuGPX - https://www.visugpx.com">
  <metadata>
    <name>Rando dans le Val Foncine</name>
    <desc><![CDATA[Belle rando dans ce secteur du Jura où les circuits de randonnées ne manquent pas, des variantes sont possibles en fonction de chacun.]]></desc>
  </metadata>
  <trk>
    <name><![CDATA[Tracé actuel: 07 MARS 2018 08:28]]></name>
    <trkseg>
      <trkpt lat="46.63831" lon="6.02889">
        <ele>878.3</ele>
        <time>2018-03-07T07:28:12Z</time>
      </trkpt>
      <trkpt lat="46.63831" lon="6.02889">
        <ele>873.98</ele>
        <time>2018-03-07T07:28:14Z</time>
      </trkpt>
      <trkpt lat="46.63832" lon="6.02888">
        <ele>870.61</ele>
        <time>2018-03-07T07:28:15Z</time>
      </trkpt>
      <trkpt lat="46.63833" lon="6.02888">
        <ele>865.32</ele>
        <time>2018-03-07T07:28:17Z</time>
      </trkpt>
      <trkpt lat="46.63833" lon="6.02888">
        <ele>861</ele>
        <time>2018-03-07T07:28:19Z</time>
      </trkpt>
      <trkpt lat="46.63833" lon="6.02889">
        <ele>856.67</ele>
        <time>2018-03-07T07:28:21Z</time>
      </trkpt>
      <trkpt lat="46.63832" lon="6.0289">
        <ele>853.31</ele>
        <time>2018-03-07T07:28:23Z</time>
      </trkpt>
      <trkpt lat="46.63832" lon="6.0289">
        <ele>848.98</ele>
        <time>2018-03-07T07:28:25Z</time>
      </trkpt>
      <trkpt lat="46.63832" lon="6.0289">
        <ele>846.1</ele>
        <time>2018-03-07T07:28:27Z</time>
      </trkpt>
      <trkpt lat="46.63832" lon="6.0289">
        <ele>842.25</ele>
        <time>2018-03-07T07:28:29Z</time>
      </trkpt>
      <trkpt lat="46.63832" lon="6.0289">
        <ele>837.45</ele>
        <time>2018-03-07T07:28:32Z</time>
      </trkpt>
      <trkpt lat="46.63832" lon="6.0289">
        <ele>836.96</ele>
        <time>2018-03-07T07:28:33Z</time>
      </trkpt>
      <trkpt lat="46.63832" lon="6.02889">
        <ele>834.56</ele>
        <time>2018-03-07T07:28:35Z</time>
      </trkpt>
      <trkpt lat="46.63833" lon="6.0289">
        <ele>828.79</ele>
        <time>2018-03-07T07:28:38Z</time>
      </trkpt>
      <trkpt lat="46.63834" lon="6.0289">
        <ele>830.24</ele>
        <time>2018-03-07T07:28:39Z</time>
      </trkpt>
      <trkpt lat="46.63834" lon="6.02889">
        <ele>826.87</ele>
        <time>2018-03-07T07:28:42Z</time>
      </trkpt>
      <trkpt lat="46.63834" lon="6.02887">
        <ele>823.51</ele>
        <time>2018-03-07T07:28:46Z</time>
      </trkpt>
      <trkpt lat="46.63835" lon="6.02887">
        <ele>822.06</ele>
        <time>2018-03-07T07:28:49Z</time>
      </trkpt>
      <trkpt lat="46.63839" lon="6.02887">
        <ele>819.66</ele>
        <time>2018-03-07T07:28:53Z</time>
      </trkpt>
      <trkpt lat="46.63841" lon="6.0289">
        <ele>818.7</ele>
        <time>2018-03-07T07:28:56Z</time>
      </trkpt>
      <trkpt lat="46.63841" lon="6.02893">
        <ele>817.74</ele>
        <time>2018-03-07T07:28:58Z</time>
      </trkpt>
      <trkpt lat="46.63843" lon="6.02904">
        <ele>813.41</ele>
        <time>2018-03-07T07:29:04Z</time>
      </trkpt>
      <trkpt lat="46.6384" lon="6.02914">
        <ele>811.97</ele>
        <time>2018-03-07T07:29:09Z</time>
      </trkpt>
      <trkpt lat="46.63835" lon="6.02928">
        <ele>809.09</ele>
        <time>2018-03-07T07:29:16Z</time>
      </trkpt>
      <trkpt lat="46.63826" lon="6.02947">
        <ele>806.2</ele>
        <time>2018-03-07T07:29:27Z</time>
      </trkpt>
      <trkpt lat="46.63818" lon="6.02966">
        <ele>804.76</ele>
        <time>2018-03-07T07:29:39Z</time>
      </trkpt>
      <trkpt lat="46.63817" lon="6.02966">
        <ele>804.28</ele>
        <time>2018-03-07T07:29:41Z</time>
      </trkpt>
      <trkpt lat="46.63816" lon="6.0297">
        <ele>804.28</ele>
        <time>2018-03-07T07:29:43Z</time>
      </trkpt>
      <trkpt lat="46.63809" lon="6.02986">
        <ele>803.32</ele>
        <time>2018-03-07T07:29:53Z</time>
      </trkpt>
      <trkpt lat="46.63804" lon="6.02992">
        <ele>801.88</ele>
        <time>2018-03-07T07:30:00Z</time>
      </trkpt>
      <trkpt lat="46.63799" lon="6.03">
        <ele>800.92</ele>
        <time>2018-03-07T07:30:04Z</time>
      </trkpt>
      <trkpt lat="46.63797" lon="6.03007">
        <ele>800.92</ele>
        <time>2018-03-07T07:30:08Z</time>
      </trkpt>
      <trkpt lat="46.63798" lon="6.03023">
        <ele>800.44</ele>
        <time>2018-03-07T07:30:15Z</time>
      </trkpt>
      <trkpt lat="46.63817" lon="6.03025">
        <ele>800.44</ele>
        <time>2018-03-07T07:30:27Z</time>
      </trkpt>
      <trkpt lat="46.63819" lon="6.03024">
        <ele>799.95</ele>
        <time>2018-03-07T07:30:29Z</time>
      </trkpt>
      <trkpt lat="46.63836" lon="6.03025">
        <ele>799.95</ele>
        <time>2018-03-07T07:30:40Z</time>
      </trkpt>
      <trkpt lat="46.63857" lon="6.03018">
        <ele>799.95</ele>
        <time>2018-03-07T07:30:54Z</time>
      </trkpt>
      <trkpt lat="46.63876" lon="6.03011">
        <ele>799.47</ele>
        <time>2018-03-07T07:31:06Z</time>
      </trkpt>
      <trkpt lat="46.63894" lon="6.03007">
        <ele>799.95</ele>
        <time>2018-03-07T07:31:20Z</time>
      </trkpt>
      <trkpt lat="46.63914" lon="6.03006">
        <ele>799.47</ele>
        <time>2018-03-07T07:31:34Z</time>
      </trkpt>
      <trkpt lat="46.63934" lon="6.03007">
        <ele>799.95</ele>
        <time>2018-03-07T07:31:48Z</time>
      </trkpt>
      <trkpt lat="46.63951" lon="6.03008">
        <ele>799.95</ele>
        <time>2018-03-07T07:32:00Z</time>
      </trkpt>
      <trkpt lat="46.63966" lon="6.03005">
        <ele>799.95</ele>
        <time>2018-03-07T07:32:14Z</time>
      </trkpt>
      <trkpt lat="46.63983" lon="6.03001">
        <ele>799.47</ele>
        <time>2018-03-07T07:32:28Z</time>
      </trkpt>
      <trkpt lat="46.63997" lon="6.02996">
        <ele>799.47</ele>
        <time>2018-03-07T07:32:39Z</time>
      </trkpt>
      <trkpt lat="46.64016" lon="6.0299">
        <ele>799.47</ele>
        <time>2018-03-07T07:32:53Z</time>
      </trkpt>
      <trkpt lat="46.64034" lon="6.02989">
        <ele>799.95</ele>
        <time>2018-03-07T07:33:06Z</time>
      </trkpt>
      <trkpt lat="46.6405" lon="6.02992">
        <ele>799.95</ele>
        <time>2018-03-07T07:33:19Z</time>
      </trkpt>
      <trkpt lat="46.64068" lon="6.02998">
        <ele>799.95</ele>
        <time>2018-03-07T07:33:31Z</time>
      </trkpt>
      <trkpt lat="46.64084" lon="6.03009">
        <ele>800.44</ele>
        <time>2018-03-07T07:33:44Z</time>
      </trkpt>
      <trkpt lat="46.6409" lon="6.03015">
        <ele>800.44</ele>
        <time>2018-03-07T07:33:49Z</time>
      </trkpt>
      <trkpt lat="46.64106" lon="6.03031">
        <ele>800.44</ele>
        <time>2018-03-07T07:34:03Z</time>
      </trkpt>
      <trkpt lat="46.64125" lon="6.03049">
        <ele>800.92</ele>
        <time>2018-03-07T07:34:17Z</time>
      </trkpt>
      <trkpt lat="46.64141" lon="6.03068">
        <ele>801.4</ele>
        <time>2018-03-07T07:34:32Z</time>
      </trkpt>
      <trkpt lat="46.64146" lon="6.03076">
        <ele>801.88</ele>
        <time>2018-03-07T07:34:38Z</time>
      </trkpt>
      <trkpt lat="46.64155" lon="6.03091">
        <ele>801.88</ele>
        <time>2018-03-07T07:34:49Z</time>
      </trkpt>
      <trkpt lat="46.64156" lon="6.03094">
        <ele>801.88</ele>
        <time>2018-03-07T07:34:51Z</time>
      </trkpt>
      <trkpt lat="46.64162" lon="6.03126">
        <ele>801.88</ele>
        <time>2018-03-07T07:35:06Z</time>
      </trkpt>
      <trkpt lat="46.64163" lon="6.03133">
        <ele>802.36</ele>
        <time>2018-03-07T07:35:10Z</time>
      </trkpt>
      <trkpt lat="46.64162" lon="6.03161">
        <ele>802.36</ele>
        <time>2018-03-07T07:35:24Z</time>
      </trkpt>
      <trkpt lat="46.64161" lon="6.03163">
        <ele>802.36</ele>
        <time>2018-03-07T07:35:25Z</time>
      </trkpt>
      <trkpt lat="46.64159" lon="6.0317">
        <ele>801.88</ele>
        <time>2018-03-07T07:35:30Z</time>
      </trkpt>
      <trkpt lat="46.64161" lon="6.0318">
        <ele>801.88</ele>
        <time>2018-03-07T07:35:41Z</time>
      </trkpt>
      <trkpt lat="46.64162" lon="6.03182">
        <ele>801.4</ele>
        <time>2018-03-07T07:35:44Z</time>
      </trkpt>
      <trkpt lat="46.64176" lon="6.03186">
        <ele>801.4</ele>
        <time>2018-03-07T07:35:55Z</time>
      </trkpt>
      <trkpt lat="46.64179" lon="6.03184">
        <ele>801.88</ele>
        <time>2018-03-07T07:35:57Z</time>
      </trkpt>
      <trkpt lat="46.642" lon="6.03185">
        <ele>803.32</ele>
        <time>2018-03-07T07:36:12Z</time>
      </trkpt>
      <trkpt lat="46.64206" lon="6.03183">
        <ele>805.24</ele>
        <time>2018-03-07T07:36:24Z</time>
      </trkpt>
      <trkpt lat="46.64212" lon="6.03179">
        <ele>806.2</ele>
        <time>2018-03-07T07:36:34Z</time>
      </trkpt>
      <trkpt lat="46.64217" lon="6.03176">
        <ele>807.64</ele>
        <time>2018-03-07T07:36:42Z</time>
      </trkpt>
      <trkpt lat="46.64224" lon="6.03172">
        <ele>809.57</ele>
        <time>2018-03-07T07:36:53Z</time>
      </trkpt>
      <trkpt lat="46.6423" lon="6.03171">
        <ele>810.53</ele>
        <time>2018-03-07T07:37:02Z</time>
      </trkpt>
      <trkpt lat="46.64237" lon="6.03171">
        <ele>811.49</ele>
        <time>2018-03-07T07:37:11Z</time>
      </trkpt>
      <trkpt lat="46.64248" lon="6.03171">
        <ele>813.41</ele>
        <time>2018-03-07T07:37:23Z</time>
      </trkpt>
      <trkpt lat="46.64283" lon="6.03114">
        <ele>814.37</ele>
        <time>2018-03-07T07:37:27Z</time>
      </trkpt>
      <trkpt lat="46.6432" lon="6.03087">
        <ele>814.85</ele>
        <time>2018-03-07T07:37:30Z</time>
      </trkpt>
      <trkpt lat="46.64344" lon="6.0308">
        <ele>816.78</ele>
        <time>2018-03-07T07:37:42Z</time>
      </trkpt>
      <trkpt lat="46.64352" lon="6.03073">
        <ele>817.74</ele>
        <time>2018-03-07T07:37:53Z</time>
      </trkpt>
      <trkpt lat="46.64358" lon="6.03067">
        <ele>819.18</ele>
        <time>2018-03-07T07:38:05Z</time>
      </trkpt>
      <trkpt lat="46.64358" lon="6.03067">
        <ele>819.66</ele>
        <time>2018-03-07T07:38:06Z</time>
      </trkpt>
      <trkpt lat="46.64374" lon="6.03047">
        <ele>820.62</ele>
        <time>2018-03-07T07:38:18Z</time>
      </trkpt>
      <trkpt lat="46.64387" lon="6.03032">
        <ele>822.55</ele>
        <time>2018-03-07T07:38:29Z</time>
      </trkpt>
      <trkpt lat="46.64395" lon="6.03028">
        <ele>823.99</ele>
        <time>2018-03-07T07:38:39Z</time>
      </trkpt>
      <trkpt lat="46.64398" lon="6.03026">
        <ele>824.47</ele>
        <time>2018-03-07T07:38:43Z</time>
      </trkpt>
      <trkpt lat="46.64407" lon="6.03022">
        <ele>825.43</ele>
        <time>2018-03-07T07:38:54Z</time>
      </trkpt>
      <trkpt lat="46.64418" lon="6.03021">
        <ele>827.35</ele>
        <time>2018-03-07T07:39:08Z</time>
      </trkpt>
      <trkpt lat="46.64424" lon="6.03019">
        <ele>827.83</ele>
        <time>2018-03-07T07:39:18Z</time>
      </trkpt>
      <trkpt lat="46.64433" lon="6.0302">
        <ele>830.24</ele>
        <time>2018-03-07T07:39:29Z</time>
      </trkpt>
      <trkpt lat="46.64441" lon="6.03018">
        <ele>831.2</ele>
        <time>2018-03-07T07:39:41Z</time>
      </trkpt>
      <trkpt lat="46.64443" lon="6.03027">
        <ele>831.68</ele>
        <time>2018-03-07T07:39:47Z</time>
      </trkpt>
      <trkpt lat="46.64441" lon="6.03045">
        <ele>833.6</ele>
        <time>2018-03-07T07:39:58Z</time>
      </trkpt>
      <trkpt lat="46.64437" lon="6.03058">
        <ele>834.08</ele>
        <time>2018-03-07T07:40:07Z</time>
      </trkpt>
      <trkpt lat="46.6443" lon="6.03079">
        <ele>834.56</ele>
        <time>2018-03-07T07:40:17Z</time>
      </trkpt>
      <trkpt lat="46.64428" lon="6.03094">
        <ele>836</ele>
        <time>2018-03-07T07:40:30Z</time>
      </trkpt>
      <trkpt lat="46.64428" lon="6.03105">
        <ele>837.45</ele>
        <time>2018-03-07T07:40:40Z</time>
      </trkpt>
      <trkpt lat="46.64435" lon="6.03113">
        <ele>838.89</ele>
        <time>2018-03-07T07:40:52Z</time>
      </trkpt>
      <trkpt lat="46.64442" lon="6.03119">
        <ele>840.33</ele>
        <time>2018-03-07T07:41:01Z</time>
      </trkpt>
      <trkpt lat="46.64451" lon="6.03128">
        <ele>842.25</ele>
        <time>2018-03-07T07:41:14Z</time>
      </trkpt>
      <trkpt lat="46.64458" lon="6.03135">
        <ele>843.21</ele>
        <time>2018-03-07T07:41:24Z</time>
      </trkpt>
      <trkpt lat="46.64463" lon="6.03137">
        <ele>843.69</ele>
        <time>2018-03-07T07:41:37Z</time>
      </trkpt>
      <trkpt lat="46.64466" lon="6.0314">
        <ele>843.69</ele>
        <time>2018-03-07T07:41:58Z</time>
      </trkpt>
      <trkpt lat="46.64464" lon="6.03143">
        <ele>843.21</ele>
        <time>2018-03-07T07:42:15Z</time>
      </trkpt>
      <trkpt lat="46.64463" lon="6.03144">
        <ele>843.21</ele>
        <time>2018-03-07T07:42:39Z</time>
      </trkpt>
      <trkpt lat="46.64398" lon="6.03202">
        <ele>843.69</ele>
        <time>2018-03-07T07:43:02Z</time>
      </trkpt>
      <trkpt lat="46.64375" lon="6.03226">
        <ele>843.21</ele>
        <time>2018-03-07T07:43:26Z</time>
      </trkpt>
      <trkpt lat="46.64376" lon="6.03232">
        <ele>843.21</ele>
        <time>2018-03-07T07:43:45Z</time>
      </trkpt>
      <trkpt lat="46.64382" lon="6.03227">
        <ele>843.21</ele>
        <time>2018-03-07T07:44:10Z</time>
      </trkpt>
      <trkpt lat="46.64383" lon="6.03225">
        <ele>842.73</ele>
        <time>2018-03-07T07:44:35Z</time>
      </trkpt>
      <trkpt lat="46.6438" lon="6.03229">
        <ele>843.21</ele>
        <time>2018-03-07T07:44:45Z</time>
      </trkpt>
      <trkpt lat="46.64396" lon="6.03222">
        <ele>844.66</ele>
        <time>2018-03-07T07:44:59Z</time>
      </trkpt>
      <trkpt lat="46.64409" lon="6.03229">
        <ele>847.06</ele>
        <time>2018-03-07T07:45:14Z</time>
      </trkpt>
      <trkpt lat="46.64411" lon="6.03231">
        <ele>847.54</ele>
        <time>2018-03-07T07:45:17Z</time>
      </trkpt>
      <trkpt lat="46.6442" lon="6.03244">
        <ele>849.46</ele>
        <time>2018-03-07T07:45:30Z</time>
      </trkpt>
      <trkpt lat="46.64425" lon="6.03251">
        <ele>850.42</ele>
        <time>2018-03-07T07:45:37Z</time>
      </trkpt>
      <trkpt lat="46.64437" lon="6.03258">
        <ele>851.87</ele>
        <time>2018-03-07T07:45:49Z</time>
      </trkpt>
      <trkpt lat="46.64452" lon="6.03266">
        <ele>853.79</ele>
        <time>2018-03-07T07:46:03Z</time>
      </trkpt>
      <trkpt lat="46.64466" lon="6.03276">
        <ele>855.23</ele>
        <time>2018-03-07T07:46:17Z</time>
      </trkpt>
      <trkpt lat="46.64479" lon="6.03285">
        <ele>855.23</ele>
        <time>2018-03-07T07:46:29Z</time>
      </trkpt>
      <trkpt lat="46.6449" lon="6.03295">
        <ele>855.23</ele>
        <time>2018-03-07T07:46:38Z</time>
      </trkpt>
      <trkpt lat="46.64493" lon="6.03303">
        <ele>855.23</ele>
        <time>2018-03-07T07:46:43Z</time>
      </trkpt>
      <trkpt lat="46.64503" lon="6.03325">
        <ele>855.71</ele>
        <time>2018-03-07T07:46:58Z</time>
      </trkpt>
      <trkpt lat="46.64506" lon="6.0333">
        <ele>856.67</ele>
        <time>2018-03-07T07:47:02Z</time>
      </trkpt>
      <trkpt lat="46.64514" lon="6.03343">
        <ele>857.63</ele>
        <time>2018-03-07T07:47:11Z</time>
      </trkpt>
      <trkpt lat="46.64528" lon="6.03358">
        <ele>857.63</ele>
        <time>2018-03-07T07:47:26Z</time>
      </trkpt>
      <trkpt lat="46.64541" lon="6.03373">
        <ele>858.59</ele>
        <time>2018-03-07T07:47:41Z</time>
      </trkpt>
      <trkpt lat="46.64551" lon="6.03386">
        <ele>860.04</ele>
        <time>2018-03-07T07:47:51Z</time>
      </trkpt>
      <trkpt lat="46.64556" lon="6.03402">
        <ele>861.48</ele>
        <time>2018-03-07T07:48:02Z</time>
      </trkpt>
      <trkpt lat="46.6456" lon="6.03417">
        <ele>862.44</ele>
        <time>2018-03-07T07:48:11Z</time>
      </trkpt>
      <trkpt lat="46.64564" lon="6.0343">
        <ele>862.44</ele>
        <time>2018-03-07T07:48:19Z</time>
      </trkpt>
      <trkpt lat="46.64576" lon="6.03442">
        <ele>862.92</ele>
        <time>2018-03-07T07:48:32Z</time>
      </trkpt>
      <trkpt lat="46.64585" lon="6.03459">
        <ele>864.36</ele>
        <time>2018-03-07T07:48:45Z</time>
      </trkpt>
      <trkpt lat="46.64587" lon="6.03469">
        <ele>864.36</ele>
        <time>2018-03-07T07:48:51Z</time>
      </trkpt>
      <trkpt lat="46.64588" lon="6.03483">
        <ele>866.29</ele>
        <time>2018-03-07T07:48:59Z</time>
      </trkpt>
      <trkpt lat="46.64598" lon="6.03498">
        <ele>868.21</ele>
        <time>2018-03-07T07:49:15Z</time>
      </trkpt>
      <trkpt lat="46.64607" lon="6.03516">
        <ele>869.65</ele>
        <time>2018-03-07T07:49:28Z</time>
      </trkpt>
      <trkpt lat="46.64609" lon="6.03525">
        <ele>870.61</ele>
        <time>2018-03-07T07:49:34Z</time>
      </trkpt>
      <trkpt lat="46.64608" lon="6.03536">
        <ele>870.61</ele>
        <time>2018-03-07T07:49:40Z</time>
      </trkpt>
      <trkpt lat="46.64609" lon="6.0354">
        <ele>871.09</ele>
        <time>2018-03-07T07:49:43Z</time>
      </trkpt>
      <trkpt lat="46.64611" lon="6.03558">
        <ele>870.61</ele>
        <time>2018-03-07T07:49:54Z</time>
      </trkpt>
      <trkpt lat="46.64614" lon="6.03579">
        <ele>870.13</ele>
        <time>2018-03-07T07:50:06Z</time>
      </trkpt>
      <trkpt lat="46.6462" lon="6.03599">
        <ele>871.09</ele>
        <time>2018-03-07T07:50:18Z</time>
      </trkpt>
      <trkpt lat="46.64624" lon="6.03617">
        <ele>872.05</ele>
        <time>2018-03-07T07:50:32Z</time>
      </trkpt>
      <trkpt lat="46.64632" lon="6.0363">
        <ele>873.01</ele>
        <time>2018-03-07T07:50:44Z</time>
      </trkpt>
      <trkpt lat="46.6464" lon="6.03639">
        <ele>872.53</ele>
        <time>2018-03-07T07:50:57Z</time>
      </trkpt>
      <trkpt lat="46.64651" lon="6.0365">
        <ele>873.5</ele>
        <time>2018-03-07T07:51:10Z</time>
      </trkpt>
      <trkpt lat="46.64673" lon="6.03667">
        <ele>873.98</ele>
        <time>2018-03-07T07:51:24Z</time>
      </trkpt>
      <trkpt lat="46.64685" lon="6.03679">
        <ele>874.94</ele>
        <time>2018-03-07T07:51:37Z</time>
      </trkpt>
      <trkpt lat="46.64697" lon="6.03687">
        <ele>874.94</ele>
        <time>2018-03-07T07:51:49Z</time>
      </trkpt>
      <trkpt lat="46.64708" lon="6.03701">
        <ele>877.34</ele>
        <time>2018-03-07T07:52:02Z</time>
      </trkpt>
      <trkpt lat="46.64714" lon="6.03711">
        <ele>877.82</ele>
        <time>2018-03-07T07:52:14Z</time>
      </trkpt>
      <trkpt lat="46.64716" lon="6.03715">
        <ele>878.3</ele>
        <time>2018-03-07T07:52:17Z</time>
      </trkpt>
      <trkpt lat="46.64717" lon="6.03717">
        <ele>878.78</ele>
        <time>2018-03-07T07:52:19Z</time>
      </trkpt>
      <trkpt lat="46.64731" lon="6.03729">
        <ele>879.74</ele>
        <time>2018-03-07T07:52:34Z</time>
      </trkpt>
      <trkpt lat="46.64741" lon="6.03736">
        <ele>882.15</ele>
        <time>2018-03-07T07:52:45Z</time>
      </trkpt>
      <trkpt lat="46.64754" lon="6.03748">
        <ele>883.11</ele>
        <time>2018-03-07T07:52:59Z</time>
      </trkpt>
      <trkpt lat="46.64762" lon="6.03756">
        <ele>885.51</ele>
        <time>2018-03-07T07:53:12Z</time>
      </trkpt>
      <trkpt lat="46.64772" lon="6.03762">
        <ele>886.47</ele>
        <time>2018-03-07T07:53:22Z</time>
      </trkpt>
      <trkpt lat="46.64785" lon="6.03762">
        <ele>888.4</ele>
        <time>2018-03-07T07:53:36Z</time>
      </trkpt>
      <trkpt lat="46.64788" lon="6.03762">
        <ele>888.88</ele>
        <time>2018-03-07T07:53:40Z</time>
      </trkpt>
      <trkpt lat="46.6479" lon="6.0376">
        <ele>888.88</ele>
        <time>2018-03-07T07:53:42Z</time>
      </trkpt>
      <trkpt lat="46.64794" lon="6.03754">
        <ele>889.84</ele>
        <time>2018-03-07T07:53:49Z</time>
      </trkpt>
      <trkpt lat="46.64794" lon="6.03751">
        <ele>889.84</ele>
        <time>2018-03-07T07:53:51Z</time>
      </trkpt>
      <trkpt lat="46.64797" lon="6.03735">
        <ele>891.76</ele>
        <time>2018-03-07T07:54:03Z</time>
      </trkpt>
      <trkpt lat="46.64805" lon="6.03722">
        <ele>893.68</ele>
        <time>2018-03-07T07:54:16Z</time>
      </trkpt>
      <trkpt lat="46.64813" lon="6.03714">
        <ele>894.64</ele>
        <time>2018-03-07T07:54:28Z</time>
      </trkpt>
      <trkpt lat="46.64814" lon="6.03713">
        <ele>895.12</ele>
        <time>2018-03-07T07:54:35Z</time>
      </trkpt>
      <trkpt lat="46.64819" lon="6.03712">
        <ele>895.12</ele>
        <time>2018-03-07T07:54:40Z</time>
      </trkpt>
      <trkpt lat="46.64824" lon="6.03714">
        <ele>895.61</ele>
        <time>2018-03-07T07:54:44Z</time>
      </trkpt>
      <trkpt lat="46.64836" lon="6.03713">
        <ele>896.57</ele>
        <time>2018-03-07T07:54:57Z</time>
      </trkpt>
      <trkpt lat="46.64845" lon="6.03714">
        <ele>898.49</ele>
        <time>2018-03-07T07:55:10Z</time>
      </trkpt>
      <trkpt lat="46.64853" lon="6.03717">
        <ele>899.45</ele>
        <time>2018-03-07T07:55:28Z</time>
      </trkpt>
      <trkpt lat="46.64862" lon="6.03718">
        <ele>900.89</ele>
        <time>2018-03-07T07:55:39Z</time>
      </trkpt>
      <trkpt lat="46.64866" lon="6.03719">
        <ele>901.85</ele>
        <time>2018-03-07T07:55:44Z</time>
      </trkpt>
      <trkpt lat="46.6488" lon="6.03722">
        <ele>903.3</ele>
        <time>2018-03-07T07:55:59Z</time>
      </trkpt>
      <trkpt lat="46.64885" lon="6.03726">
        <ele>904.26</ele>
        <time>2018-03-07T07:56:11Z</time>
      </trkpt>
      <trkpt lat="46.64888" lon="6.03725">
        <ele>903.3</ele>
        <time>2018-03-07T07:56:24Z</time>
      </trkpt>
      <trkpt lat="46.6489" lon="6.03721">
        <ele>903.78</ele>
        <time>2018-03-07T07:56:32Z</time>
      </trkpt>
      <trkpt lat="46.64892" lon="6.03719">
        <ele>904.74</ele>
        <time>2018-03-07T07:56:34Z</time>
      </trkpt>
      <trkpt lat="46.64893" lon="6.03714">
        <ele>904.26</ele>
        <time>2018-03-07T07:56:38Z</time>
      </trkpt>
      <trkpt lat="46.64903" lon="6.03698">
        <ele>905.7</ele>
        <time>2018-03-07T07:56:51Z</time>
      </trkpt>
      <trkpt lat="46.64915" lon="6.03683">
        <ele>907.14</ele>
        <time>2018-03-07T07:57:06Z</time>
      </trkpt>
      <trkpt lat="46.64933" lon="6.03672">
        <ele>908.58</ele>
        <time>2018-03-07T07:57:22Z</time>
      </trkpt>
      <trkpt lat="46.64947" lon="6.03675">
        <ele>909.54</ele>
        <time>2018-03-07T07:57:34Z</time>
      </trkpt>
      <trkpt lat="46.64953" lon="6.03678">
        <ele>910.51</ele>
        <time>2018-03-07T07:57:40Z</time>
      </trkpt>
      <trkpt lat="46.6496" lon="6.03687">
        <ele>910.99</ele>
        <time>2018-03-07T07:57:49Z</time>
      </trkpt>
      <trkpt lat="46.64967" lon="6.03697">
        <ele>912.91</ele>
        <time>2018-03-07T07:57:59Z</time>
      </trkpt>
      <trkpt lat="46.64972" lon="6.03701">
        <ele>913.39</ele>
        <time>2018-03-07T07:58:04Z</time>
      </trkpt>
      <trkpt lat="46.64976" lon="6.03706">
        <ele>914.35</ele>
        <time>2018-03-07T07:58:09Z</time>
      </trkpt>
      <trkpt lat="46.64987" lon="6.03717">
        <ele>915.31</ele>
        <time>2018-03-07T07:58:22Z</time>
      </trkpt>
      <trkpt lat="46.64997" lon="6.03727">
        <ele>917.72</ele>
        <time>2018-03-07T07:58:36Z</time>
      </trkpt>
      <trkpt lat="46.65003" lon="6.0373">
        <ele>918.2</ele>
        <time>2018-03-07T07:58:42Z</time>
      </trkpt>
      <trkpt lat="46.65008" lon="6.03733">
        <ele>918.68</ele>
        <time>2018-03-07T07:58:47Z</time>
      </trkpt>
      <trkpt lat="46.6502" lon="6.03741">
        <ele>920.6</ele>
        <time>2018-03-07T07:59:01Z</time>
      </trkpt>
      <trkpt lat="46.65031" lon="6.03748">
        <ele>922.04</ele>
        <time>2018-03-07T07:59:14Z</time>
      </trkpt>
      <trkpt lat="46.65042" lon="6.03756">
        <ele>923</ele>
        <time>2018-03-07T07:59:26Z</time>
      </trkpt>
      <trkpt lat="46.65052" lon="6.03758">
        <ele>923.96</ele>
        <time>2018-03-07T07:59:37Z</time>
      </trkpt>
      <trkpt lat="46.65058" lon="6.03757">
        <ele>924.45</ele>
        <time>2018-03-07T07:59:42Z</time>
      </trkpt>
      <trkpt lat="46.65075" lon="6.03749">
        <ele>925.89</ele>
        <time>2018-03-07T07:59:58Z</time>
      </trkpt>
      <trkpt lat="46.65086" lon="6.03743">
        <ele>927.33</ele>
        <time>2018-03-07T08:00:08Z</time>
      </trkpt>
      <trkpt lat="46.65091" lon="6.03742">
        <ele>928.29</ele>
        <time>2018-03-07T08:00:13Z</time>
      </trkpt>
      <trkpt lat="46.65103" lon="6.03733">
        <ele>930.21</ele>
        <time>2018-03-07T08:00:29Z</time>
      </trkpt>
      <trkpt lat="46.65107" lon="6.0373">
        <ele>930.69</ele>
        <time>2018-03-07T08:00:41Z</time>
      </trkpt>
      <trkpt lat="46.65104" lon="6.03729">
        <ele>931.17</ele>
        <time>2018-03-07T08:01:07Z</time>
      </trkpt>
      <trkpt lat="46.65107" lon="6.03728">
        <ele>931.17</ele>
        <time>2018-03-07T08:01:13Z</time>
      </trkpt>
      <trkpt lat="46.65121" lon="6.03724">
        <ele>932.14</ele>
        <time>2018-03-07T08:01:26Z</time>
      </trkpt>
      <trkpt lat="46.65128" lon="6.03722">
        <ele>932.14</ele>
        <time>2018-03-07T08:01:37Z</time>
      </trkpt>
      <trkpt lat="46.65128" lon="6.03724">
        <ele>932.62</ele>
        <time>2018-03-07T08:02:06Z</time>
      </trkpt>
      <trkpt lat="46.65127" lon="6.03724">
        <ele>932.62</ele>
        <time>2018-03-07T08:02:25Z</time>
      </trkpt>
      <trkpt lat="46.65126" lon="6.03723">
        <ele>932.62</ele>
        <time>2018-03-07T08:02:54Z</time>
      </trkpt>
      <trkpt lat="46.65129" lon="6.03725">
        <ele>932.62</ele>
        <time>2018-03-07T08:03:06Z</time>
      </trkpt>
      <trkpt lat="46.65136" lon="6.03735">
        <ele>933.1</ele>
        <time>2018-03-07T08:03:19Z</time>
      </trkpt>
      <trkpt lat="46.65147" lon="6.03751">
        <ele>934.06</ele>
        <time>2018-03-07T08:03:29Z</time>
      </trkpt>
      <trkpt lat="46.65152" lon="6.03772">
        <ele>934.06</ele>
        <time>2018-03-07T08:03:39Z</time>
      </trkpt>
      <trkpt lat="46.65157" lon="6.03788">
        <ele>934.54</ele>
        <time>2018-03-07T08:03:47Z</time>
      </trkpt>
      <trkpt lat="46.65161" lon="6.03805">
        <ele>935.02</ele>
        <time>2018-03-07T08:03:57Z</time>
      </trkpt>
      <trkpt lat="46.65174" lon="6.03827">
        <ele>936.94</ele>
        <time>2018-03-07T08:04:10Z</time>
      </trkpt>
      <trkpt lat="46.65183" lon="6.03849">
        <ele>935.98</ele>
        <time>2018-03-07T08:04:22Z</time>
      </trkpt>
      <trkpt lat="46.65188" lon="6.03867">
        <ele>935.98</ele>
        <time>2018-03-07T08:04:33Z</time>
      </trkpt>
      <trkpt lat="46.65192" lon="6.03881">
        <ele>935.98</ele>
        <time>2018-03-07T08:04:43Z</time>
      </trkpt>
      <trkpt lat="46.65199" lon="6.03899">
        <ele>936.94</ele>
        <time>2018-03-07T08:04:52Z</time>
      </trkpt>
      <trkpt lat="46.65209" lon="6.03909">
        <ele>937.9</ele>
        <time>2018-03-07T08:05:05Z</time>
      </trkpt>
      <trkpt lat="46.65211" lon="6.03906">
        <ele>938.86</ele>
        <time>2018-03-07T08:05:16Z</time>
      </trkpt>
      <trkpt lat="46.65217" lon="6.03921">
        <ele>937.42</ele>
        <time>2018-03-07T08:05:27Z</time>
      </trkpt>
      <trkpt lat="46.65217" lon="6.03925">
        <ele>937.9</ele>
        <time>2018-03-07T08:05:29Z</time>
      </trkpt>
      <trkpt lat="46.65222" lon="6.0394">
        <ele>937.9</ele>
        <time>2018-03-07T08:05:40Z</time>
      </trkpt>
      <trkpt lat="46.65229" lon="6.03949">
        <ele>937.9</ele>
        <time>2018-03-07T08:05:46Z</time>
      </trkpt>
      <trkpt lat="46.65237" lon="6.0396">
        <ele>937.9</ele>
        <time>2018-03-07T08:05:54Z</time>
      </trkpt>
      <trkpt lat="46.65249" lon="6.03981">
        <ele>937.9</ele>
        <time>2018-03-07T08:06:07Z</time>
      </trkpt>
      <trkpt lat="46.65265" lon="6.04007">
        <ele>938.86</ele>
        <time>2018-03-07T08:06:22Z</time>
      </trkpt>
      <trkpt lat="46.65278" lon="6.04031">
        <ele>937.9</ele>
        <time>2018-03-07T08:06:36Z</time>
      </trkpt>
      <trkpt lat="46.65283" lon="6.04038">
        <ele>937.42</ele>
        <time>2018-03-07T08:06:42Z</time>
      </trkpt>
      <trkpt lat="46.65291" lon="6.04051">
        <ele>936.46</ele>
        <time>2018-03-07T08:06:55Z</time>
      </trkpt>
      <trkpt lat="46.65301" lon="6.04067">
        <ele>937.42</ele>
        <time>2018-03-07T08:07:08Z</time>
      </trkpt>
      <trkpt lat="46.6532" lon="6.04084">
        <ele>938.86</ele>
        <time>2018-03-07T08:07:23Z</time>
      </trkpt>
      <trkpt lat="46.6534" lon="6.04105">
        <ele>939.35</ele>
        <time>2018-03-07T08:07:40Z</time>
      </trkpt>
      <trkpt lat="46.65345" lon="6.04109">
        <ele>940.31</ele>
        <time>2018-03-07T08:07:44Z</time>
      </trkpt>
      <trkpt lat="46.65351" lon="6.0412">
        <ele>940.79</ele>
        <time>2018-03-07T08:07:52Z</time>
      </trkpt>
      <trkpt lat="46.65362" lon="6.04131">
        <ele>941.27</ele>
        <time>2018-03-07T08:08:03Z</time>
      </trkpt>
      <trkpt lat="46.65378" lon="6.04149">
        <ele>942.71</ele>
        <time>2018-03-07T08:08:19Z</time>
      </trkpt>
      <trkpt lat="46.65379" lon="6.04151">
        <ele>942.23</ele>
        <time>2018-03-07T08:08:21Z</time>
      </trkpt>
      <trkpt lat="46.65386" lon="6.04174">
        <ele>944.15</ele>
        <time>2018-03-07T08:08:36Z</time>
      </trkpt>
      <trkpt lat="46.65386" lon="6.04175">
        <ele>943.67</ele>
        <time>2018-03-07T08:08:37Z</time>
      </trkpt>
      <trkpt lat="46.654" lon="6.042">
        <ele>945.59</ele>
        <time>2018-03-07T08:08:54Z</time>
      </trkpt>
      <trkpt lat="46.65404" lon="6.04203">
        <ele>946.07</ele>
        <time>2018-03-07T08:08:57Z</time>
      </trkpt>
      <trkpt lat="46.65411" lon="6.04216">
        <ele>946.56</ele>
        <time>2018-03-07T08:09:06Z</time>
      </trkpt>
      <trkpt lat="46.65419" lon="6.04236">
        <ele>947.04</ele>
        <time>2018-03-07T08:09:16Z</time>
      </trkpt>
      <trkpt lat="46.65424" lon="6.04251">
        <ele>948.48</ele>
        <time>2018-03-07T08:09:27Z</time>
      </trkpt>
      <trkpt lat="46.65435" lon="6.04275">
        <ele>948.96</ele>
        <time>2018-03-07T08:09:41Z</time>
      </trkpt>
      <trkpt lat="46.65436" lon="6.0428">
        <ele>948.96</ele>
        <time>2018-03-07T08:09:53Z</time>
      </trkpt>
      <trkpt lat="46.65438" lon="6.04285">
        <ele>948.96</ele>
        <time>2018-03-07T08:09:57Z</time>
      </trkpt>
      <trkpt lat="46.65451" lon="6.04304">
        <ele>947.52</ele>
        <time>2018-03-07T08:10:11Z</time>
      </trkpt>
      <trkpt lat="46.65464" lon="6.04329">
        <ele>945.59</ele>
        <time>2018-03-07T08:10:24Z</time>
      </trkpt>
      <trkpt lat="46.65469" lon="6.04344">
        <ele>945.11</ele>
        <time>2018-03-07T08:10:31Z</time>
      </trkpt>
      <trkpt lat="46.65473" lon="6.04361">
        <ele>943.67</ele>
        <time>2018-03-07T08:10:40Z</time>
      </trkpt>
      <trkpt lat="46.65477" lon="6.04399">
        <ele>943.19</ele>
        <time>2018-03-07T08:10:58Z</time>
      </trkpt>
      <trkpt lat="46.65479" lon="6.04427">
        <ele>943.19</ele>
        <time>2018-03-07T08:11:12Z</time>
      </trkpt>
      <trkpt lat="46.65483" lon="6.04462">
        <ele>942.23</ele>
        <time>2018-03-07T08:11:29Z</time>
      </trkpt>
      <trkpt lat="46.65483" lon="6.04463">
        <ele>942.23</ele>
        <time>2018-03-07T08:11:30Z</time>
      </trkpt>
      <trkpt lat="46.65481" lon="6.04491">
        <ele>941.27</ele>
        <time>2018-03-07T08:11:45Z</time>
      </trkpt>
      <trkpt lat="46.65486" lon="6.04519">
        <ele>940.31</ele>
        <time>2018-03-07T08:12:00Z</time>
      </trkpt>
      <trkpt lat="46.65491" lon="6.04557">
        <ele>938.86</ele>
        <time>2018-03-07T08:12:19Z</time>
      </trkpt>
      <trkpt lat="46.65494" lon="6.04588">
        <ele>937.42</ele>
        <time>2018-03-07T08:12:35Z</time>
      </trkpt>
      <trkpt lat="46.65495" lon="6.04616">
        <ele>935.98</ele>
        <time>2018-03-07T08:12:50Z</time>
      </trkpt>
      <trkpt lat="46.65499" lon="6.04646">
        <ele>935.02</ele>
        <time>2018-03-07T08:13:04Z</time>
      </trkpt>
      <trkpt lat="46.65502" lon="6.04675">
        <ele>934.54</ele>
        <time>2018-03-07T08:13:18Z</time>
      </trkpt>
      <trkpt lat="46.65507" lon="6.04706">
        <ele>933.58</ele>
        <time>2018-03-07T08:13:33Z</time>
      </trkpt>
      <trkpt lat="46.65515" lon="6.04736">
        <ele>932.62</ele>
        <time>2018-03-07T08:13:50Z</time>
      </trkpt>
      <trkpt lat="46.65522" lon="6.04765">
        <ele>931.65</ele>
        <time>2018-03-07T08:14:06Z</time>
      </trkpt>
      <trkpt lat="46.65531" lon="6.04796">
        <ele>931.17</ele>
        <time>2018-03-07T08:14:22Z</time>
      </trkpt>
      <trkpt lat="46.65541" lon="6.04828">
        <ele>930.21</ele>
        <time>2018-03-07T08:14:40Z</time>
      </trkpt>
      <trkpt lat="46.65546" lon="6.04852">
        <ele>929.25</ele>
        <time>2018-03-07T08:14:52Z</time>
      </trkpt>
      <trkpt lat="46.6555" lon="6.04865">
        <ele>928.77</ele>
        <time>2018-03-07T08:14:59Z</time>
      </trkpt>
      <trkpt lat="46.65556" lon="6.04898">
        <ele>928.29</ele>
        <time>2018-03-07T08:15:17Z</time>
      </trkpt>
      <trkpt lat="46.65564" lon="6.04927">
        <ele>926.85</ele>
        <time>2018-03-07T08:15:33Z</time>
      </trkpt>
      <trkpt lat="46.65565" lon="6.0493">
        <ele>926.85</ele>
        <time>2018-03-07T08:15:35Z</time>
      </trkpt>
      <trkpt lat="46.65568" lon="6.04952">
        <ele>925.41</ele>
        <time>2018-03-07T08:15:48Z</time>
      </trkpt>
      <trkpt lat="46.65574" lon="6.04984">
        <ele>924.45</ele>
        <time>2018-03-07T08:16:03Z</time>
      </trkpt>
      <trkpt lat="46.65581" lon="6.05013">
        <ele>923.96</ele>
        <time>2018-03-07T08:16:17Z</time>
      </trkpt>
      <trkpt lat="46.65583" lon="6.05028">
        <ele>922.52</ele>
        <time>2018-03-07T08:16:25Z</time>
      </trkpt>
      <trkpt lat="46.65586" lon="6.05047">
        <ele>922.52</ele>
        <time>2018-03-07T08:16:36Z</time>
      </trkpt>
      <trkpt lat="46.65597" lon="6.05076">
        <ele>921.08</ele>
        <time>2018-03-07T08:16:50Z</time>
      </trkpt>
      <trkpt lat="46.65607" lon="6.05102">
        <ele>920.6</ele>
        <time>2018-03-07T08:17:04Z</time>
      </trkpt>
      <trkpt lat="46.65616" lon="6.05127">
        <ele>919.64</ele>
        <time>2018-03-07T08:17:17Z</time>
      </trkpt>
      <trkpt lat="46.65616" lon="6.0513">
        <ele>919.64</ele>
        <time>2018-03-07T08:17:18Z</time>
      </trkpt>
      <trkpt lat="46.65621" lon="6.05145">
        <ele>919.16</ele>
        <time>2018-03-07T08:17:26Z</time>
      </trkpt>
      <trkpt lat="46.65636" lon="6.05176">
        <ele>918.68</ele>
        <time>2018-03-07T08:17:40Z</time>
      </trkpt>
      <trkpt lat="46.65642" lon="6.05181">
        <ele>918.68</ele>
        <time>2018-03-07T08:17:52Z</time>
      </trkpt>
      <trkpt lat="46.65643" lon="6.05188">
        <ele>918.68</ele>
        <time>2018-03-07T08:17:56Z</time>
      </trkpt>
      <trkpt lat="46.65641" lon="6.05211">
        <ele>917.72</ele>
        <time>2018-03-07T08:18:07Z</time>
      </trkpt>
      <trkpt lat="46.65643" lon="6.05218">
        <ele>917.24</ele>
        <time>2018-03-07T08:18:10Z</time>
      </trkpt>
      <trkpt lat="46.65647" lon="6.05247">
        <ele>916.75</ele>
        <time>2018-03-07T08:18:24Z</time>
      </trkpt>
      <trkpt lat="46.65649" lon="6.05257">
        <ele>915.79</ele>
        <time>2018-03-07T08:18:29Z</time>
      </trkpt>
      <trkpt lat="46.65651" lon="6.05281">
        <ele>914.83</ele>
        <time>2018-03-07T08:18:41Z</time>
      </trkpt>
      <trkpt lat="46.6565" lon="6.05296">
        <ele>914.35</ele>
        <time>2018-03-07T08:18:48Z</time>
      </trkpt>
      <trkpt lat="46.6565" lon="6.0532">
        <ele>912.43</ele>
        <time>2018-03-07T08:18:59Z</time>
      </trkpt>
      <trkpt lat="46.65649" lon="6.05331">
        <ele>912.43</ele>
        <time>2018-03-07T08:19:05Z</time>
      </trkpt>
      <trkpt lat="46.65648" lon="6.05359">
        <ele>910.51</ele>
        <time>2018-03-07T08:19:20Z</time>
      </trkpt>
      <trkpt lat="46.65647" lon="6.05363">
        <ele>910.51</ele>
        <time>2018-03-07T08:19:22Z</time>
      </trkpt>
      <trkpt lat="46.65646" lon="6.05376">
        <ele>910.03</ele>
        <time>2018-03-07T08:19:29Z</time>
      </trkpt>
      <trkpt lat="46.65646" lon="6.05398">
        <ele>909.06</ele>
        <time>2018-03-07T08:19:40Z</time>
      </trkpt>
      <trkpt lat="46.65645" lon="6.054">
        <ele>909.06</ele>
        <time>2018-03-07T08:19:41Z</time>
      </trkpt>
      <trkpt lat="46.65643" lon="6.05426">
        <ele>907.62</ele>
        <time>2018-03-07T08:19:54Z</time>
      </trkpt>
      <trkpt lat="46.65641" lon="6.05429">
        <ele>907.62</ele>
        <time>2018-03-07T08:19:56Z</time>
      </trkpt>
      <trkpt lat="46.65636" lon="6.05451">
        <ele>906.18</ele>
        <time>2018-03-07T08:20:09Z</time>
      </trkpt>
      <trkpt lat="46.65632" lon="6.05461">
        <ele>905.22</ele>
        <time>2018-03-07T08:20:18Z</time>
      </trkpt>
      <trkpt lat="46.6563" lon="6.05468">
        <ele>904.74</ele>
        <time>2018-03-07T08:20:22Z</time>
      </trkpt>
      <trkpt lat="46.65621" lon="6.05495">
        <ele>902.82</ele>
        <time>2018-03-07T08:20:34Z</time>
      </trkpt>
      <trkpt lat="46.6562" lon="6.05498">
        <ele>902.82</ele>
        <time>2018-03-07T08:20:36Z</time>
      </trkpt>
      <trkpt lat="46.65618" lon="6.05502">
        <ele>902.33</ele>
        <time>2018-03-07T08:20:38Z</time>
      </trkpt>
      <trkpt lat="46.65609" lon="6.05511">
        <ele>902.33</ele>
        <time>2018-03-07T08:20:52Z</time>
      </trkpt>
      <trkpt lat="46.65608" lon="6.05512">
        <ele>902.82</ele>
        <time>2018-03-07T08:21:14Z</time>
      </trkpt>
      <trkpt lat="46.65609" lon="6.05516">
        <ele>902.33</ele>
        <time>2018-03-07T08:21:24Z</time>
      </trkpt>
      <trkpt lat="46.65601" lon="6.05544">
        <ele>901.37</ele>
        <time>2018-03-07T08:21:38Z</time>
      </trkpt>
      <trkpt lat="46.65593" lon="6.05563">
        <ele>901.37</ele>
        <time>2018-03-07T08:21:48Z</time>
      </trkpt>
      <trkpt lat="46.65587" lon="6.05582">
        <ele>900.89</ele>
        <time>2018-03-07T08:22:00Z</time>
      </trkpt>
      <trkpt lat="46.65578" lon="6.05598">
        <ele>900.41</ele>
        <time>2018-03-07T08:22:11Z</time>
      </trkpt>
      <trkpt lat="46.65576" lon="6.05603">
        <ele>899.93</ele>
        <time>2018-03-07T08:22:15Z</time>
      </trkpt>
      <trkpt lat="46.65564" lon="6.05618">
        <ele>898.97</ele>
        <time>2018-03-07T08:22:27Z</time>
      </trkpt>
      <trkpt lat="46.65548" lon="6.05633">
        <ele>897.53</ele>
        <time>2018-03-07T08:22:39Z</time>
      </trkpt>
      <trkpt lat="46.65534" lon="6.05644">
        <ele>897.05</ele>
        <time>2018-03-07T08:22:53Z</time>
      </trkpt>
      <trkpt lat="46.65526" lon="6.05652">
        <ele>895.61</ele>
        <time>2018-03-07T08:23:03Z</time>
      </trkpt>
      <trkpt lat="46.6552" lon="6.05657">
        <ele>894.64</ele>
        <time>2018-03-07T08:23:17Z</time>
      </trkpt>
      <trkpt lat="46.65516" lon="6.05662">
        <ele>894.16</ele>
        <time>2018-03-07T08:23:29Z</time>
      </trkpt>
      <trkpt lat="46.65501" lon="6.05673">
        <ele>892.24</ele>
        <time>2018-03-07T08:23:44Z</time>
      </trkpt>
      <trkpt lat="46.65485" lon="6.05686">
        <ele>891.28</ele>
        <time>2018-03-07T08:23:56Z</time>
      </trkpt>
      <trkpt lat="46.65466" lon="6.057">
        <ele>889.36</ele>
        <time>2018-03-07T08:24:12Z</time>
      </trkpt>
      <trkpt lat="46.65449" lon="6.05713">
        <ele>888.88</ele>
        <time>2018-03-07T08:24:26Z</time>
      </trkpt>
      <trkpt lat="46.65433" lon="6.05726">
        <ele>888.4</ele>
        <time>2018-03-07T08:24:38Z</time>
      </trkpt>
      <trkpt lat="46.65425" lon="6.05742">
        <ele>888.4</ele>
        <time>2018-03-07T08:24:49Z</time>
      </trkpt>
      <trkpt lat="46.65419" lon="6.0576">
        <ele>887.91</ele>
        <time>2018-03-07T08:25:02Z</time>
      </trkpt>
      <trkpt lat="46.65417" lon="6.0576">
        <ele>887.43</ele>
        <time>2018-03-07T08:25:25Z</time>
      </trkpt>
      <trkpt lat="46.65418" lon="6.05761">
        <ele>886.95</ele>
        <time>2018-03-07T08:25:27Z</time>
      </trkpt>
      <trkpt lat="46.65426" lon="6.05777">
        <ele>886.47</ele>
        <time>2018-03-07T08:25:36Z</time>
      </trkpt>
      <trkpt lat="46.65436" lon="6.05791">
        <ele>885.51</ele>
        <time>2018-03-07T08:25:48Z</time>
      </trkpt>
      <trkpt lat="46.65447" lon="6.05802">
        <ele>885.99</ele>
        <time>2018-03-07T08:26:00Z</time>
      </trkpt>
      <trkpt lat="46.65457" lon="6.05813">
        <ele>885.99</ele>
        <time>2018-03-07T08:26:10Z</time>
      </trkpt>
      <trkpt lat="46.65463" lon="6.0582">
        <ele>885.51</ele>
        <time>2018-03-07T08:26:22Z</time>
      </trkpt>
      <trkpt lat="46.65469" lon="6.05822">
        <ele>885.51</ele>
        <time>2018-03-07T08:26:37Z</time>
      </trkpt>
      <trkpt lat="46.65475" lon="6.05823">
        <ele>884.55</ele>
        <time>2018-03-07T08:26:49Z</time>
      </trkpt>
      <trkpt lat="46.65479" lon="6.05822">
        <ele>884.55</ele>
        <time>2018-03-07T08:27:06Z</time>
      </trkpt>
      <trkpt lat="46.65479" lon="6.05823">
        <ele>884.55</ele>
        <time>2018-03-07T08:27:29Z</time>
      </trkpt>
      <trkpt lat="46.65481" lon="6.05822">
        <ele>885.03</ele>
        <time>2018-03-07T08:27:52Z</time>
      </trkpt>
      <trkpt lat="46.65481" lon="6.05823">
        <ele>884.55</ele>
        <time>2018-03-07T08:28:14Z</time>
      </trkpt>
      <trkpt lat="46.65482" lon="6.05822">
        <ele>884.55</ele>
        <time>2018-03-07T08:28:36Z</time>
      </trkpt>
      <trkpt lat="46.65489" lon="6.05829">
        <ele>884.07</ele>
        <time>2018-03-07T08:28:48Z</time>
      </trkpt>
      <trkpt lat="46.65491" lon="6.05831">
        <ele>883.11</ele>
        <time>2018-03-07T08:28:52Z</time>
      </trkpt>
      <trkpt lat="46.65498" lon="6.05836">
        <ele>882.63</ele>
        <time>2018-03-07T08:28:59Z</time>
      </trkpt>
      <trkpt lat="46.65519" lon="6.05849">
        <ele>881.67</ele>
        <time>2018-03-07T08:29:14Z</time>
      </trkpt>
      <trkpt lat="46.65531" lon="6.05857">
        <ele>881.67</ele>
        <time>2018-03-07T08:29:24Z</time>
      </trkpt>
      <trkpt lat="46.65544" lon="6.05866">
        <ele>881.67</ele>
        <time>2018-03-07T08:29:34Z</time>
      </trkpt>
      <trkpt lat="46.65553" lon="6.05885">
        <ele>882.15</ele>
        <time>2018-03-07T08:29:46Z</time>
      </trkpt>
      <trkpt lat="46.65554" lon="6.05892">
        <ele>882.63</ele>
        <time>2018-03-07T08:29:53Z</time>
      </trkpt>
      <trkpt lat="46.6556" lon="6.05899">
        <ele>869.17</ele>
        <time>2018-03-07T08:29:59Z</time>
      </trkpt>
      <trkpt lat="46.65561" lon="6.05901">
        <ele>885.03</ele>
        <time>2018-03-07T08:30:00Z</time>
      </trkpt>
      <trkpt lat="46.65571" lon="6.05924">
        <ele>883.59</ele>
        <time>2018-03-07T08:30:13Z</time>
      </trkpt>
      <trkpt lat="46.65577" lon="6.05938">
        <ele>883.59</ele>
        <time>2018-03-07T08:30:23Z</time>
      </trkpt>
      <trkpt lat="46.65589" lon="6.05958">
        <ele>881.67</ele>
        <time>2018-03-07T08:30:36Z</time>
      </trkpt>
      <trkpt lat="46.65592" lon="6.05965">
        <ele>881.67</ele>
        <time>2018-03-07T08:30:42Z</time>
      </trkpt>
      <trkpt lat="46.65597" lon="6.05975">
        <ele>881.19</ele>
        <time>2018-03-07T08:30:49Z</time>
      </trkpt>
      <trkpt lat="46.656" lon="6.05983">
        <ele>881.67</ele>
        <time>2018-03-07T08:30:55Z</time>
      </trkpt>
      <trkpt lat="46.65609" lon="6.0601">
        <ele>882.63</ele>
        <time>2018-03-07T08:31:09Z</time>
      </trkpt>
      <trkpt lat="46.65619" lon="6.06031">
        <ele>884.55</ele>
        <time>2018-03-07T08:31:23Z</time>
      </trkpt>
      <trkpt lat="46.65621" lon="6.06037">
        <ele>884.55</ele>
        <time>2018-03-07T08:31:28Z</time>
      </trkpt>
      <trkpt lat="46.65623" lon="6.06049">
        <ele>885.03</ele>
        <time>2018-03-07T08:31:35Z</time>
      </trkpt>
      <trkpt lat="46.65626" lon="6.0607">
        <ele>884.07</ele>
        <time>2018-03-07T08:31:47Z</time>
      </trkpt>
      <trkpt lat="46.65627" lon="6.0609">
        <ele>882.63</ele>
        <time>2018-03-07T08:31:59Z</time>
      </trkpt>
      <trkpt lat="46.6562" lon="6.06106">
        <ele>880.71</ele>
        <time>2018-03-07T08:32:13Z</time>
      </trkpt>
      <trkpt lat="46.6562" lon="6.06107">
        <ele>880.71</ele>
        <time>2018-03-07T08:32:17Z</time>
      </trkpt>
      <trkpt lat="46.65622" lon="6.06092">
        <ele>884.07</ele>
        <time>2018-03-07T08:32:30Z</time>
      </trkpt>
      <trkpt lat="46.65625" lon="6.06083">
        <ele>883.11</ele>
        <time>2018-03-07T08:32:36Z</time>
      </trkpt>
      <trkpt lat="46.65626" lon="6.06072">
        <ele>884.55</ele>
        <time>2018-03-07T08:32:42Z</time>
      </trkpt>
      <trkpt lat="46.65621" lon="6.06045">
        <ele>884.55</ele>
        <time>2018-03-07T08:32:58Z</time>
      </trkpt>
      <trkpt lat="46.65621" lon="6.0604">
        <ele>885.03</ele>
        <time>2018-03-07T08:33:14Z</time>
      </trkpt>
      <trkpt lat="46.65621" lon="6.06041">
        <ele>884.55</ele>
        <time>2018-03-07T08:33:34Z</time>
      </trkpt>
      <trkpt lat="46.65623" lon="6.06065">
        <ele>884.55</ele>
        <time>2018-03-07T08:33:50Z</time>
      </trkpt>
      <trkpt lat="46.65623" lon="6.06069">
        <ele>884.55</ele>
        <time>2018-03-07T08:33:52Z</time>
      </trkpt>
      <trkpt lat="46.65625" lon="6.06093">
        <ele>883.11</ele>
        <time>2018-03-07T08:34:04Z</time>
      </trkpt>
      <trkpt lat="46.65625" lon="6.06098">
        <ele>882.63</ele>
        <time>2018-03-07T08:34:08Z</time>
      </trkpt>
      <trkpt lat="46.65614" lon="6.06121">
        <ele>879.74</ele>
        <time>2018-03-07T08:34:19Z</time>
      </trkpt>
      <trkpt lat="46.65611" lon="6.06122">
        <ele>879.26</ele>
        <time>2018-03-07T08:34:22Z</time>
      </trkpt>
      <trkpt lat="46.65604" lon="6.06122">
        <ele>876.86</ele>
        <time>2018-03-07T08:34:29Z</time>
      </trkpt>
      <trkpt lat="46.65593" lon="6.06122">
        <ele>875.42</ele>
        <time>2018-03-07T08:34:38Z</time>
      </trkpt>
      <trkpt lat="46.65577" lon="6.06124">
        <ele>873.01</ele>
        <time>2018-03-07T08:34:52Z</time>
      </trkpt>
      <trkpt lat="46.65568" lon="6.06126">
        <ele>872.53</ele>
        <time>2018-03-07T08:34:59Z</time>
      </trkpt>
      <trkpt lat="46.65556" lon="6.06131">
        <ele>872.05</ele>
        <time>2018-03-07T08:35:07Z</time>
      </trkpt>
      <trkpt lat="46.65549" lon="6.06147">
        <ele>871.09</ele>
        <time>2018-03-07T08:35:18Z</time>
      </trkpt>
      <trkpt lat="46.65544" lon="6.06163">
        <ele>870.61</ele>
        <time>2018-03-07T08:35:27Z</time>
      </trkpt>
      <trkpt lat="46.65539" lon="6.06182">
        <ele>871.09</ele>
        <time>2018-03-07T08:35:37Z</time>
      </trkpt>
      <trkpt lat="46.65535" lon="6.06194">
        <ele>870.13</ele>
        <time>2018-03-07T08:35:42Z</time>
      </trkpt>
      <trkpt lat="46.65538" lon="6.06221">
        <ele>870.13</ele>
        <time>2018-03-07T08:35:55Z</time>
      </trkpt>
      <trkpt lat="46.65539" lon="6.06243">
        <ele>869.65</ele>
        <time>2018-03-07T08:36:06Z</time>
      </trkpt>
      <trkpt lat="46.6554" lon="6.06273">
        <ele>868.69</ele>
        <time>2018-03-07T08:36:20Z</time>
      </trkpt>
      <trkpt lat="46.65539" lon="6.06277">
        <ele>868.21</ele>
        <time>2018-03-07T08:36:22Z</time>
      </trkpt>
      <trkpt lat="46.65538" lon="6.06288">
        <ele>868.69</ele>
        <time>2018-03-07T08:36:28Z</time>
      </trkpt>
      <trkpt lat="46.65538" lon="6.06305">
        <ele>868.21</ele>
        <time>2018-03-07T08:36:36Z</time>
      </trkpt>
      <trkpt lat="46.65537" lon="6.06325">
        <ele>867.25</ele>
        <time>2018-03-07T08:36:46Z</time>
      </trkpt>
      <trkpt lat="46.65538" lon="6.06345">
        <ele>866.77</ele>
        <time>2018-03-07T08:36:58Z</time>
      </trkpt>
      <trkpt lat="46.65533" lon="6.06372">
        <ele>866.77</ele>
        <time>2018-03-07T08:37:10Z</time>
      </trkpt>
      <trkpt lat="46.65527" lon="6.06395">
        <ele>864.84</ele>
        <time>2018-03-07T08:37:21Z</time>
      </trkpt>
      <trkpt lat="46.65523" lon="6.06407">
        <ele>864.84</ele>
        <time>2018-03-07T08:37:28Z</time>
      </trkpt>
      <trkpt lat="46.65525" lon="6.06426">
        <ele>864.36</ele>
        <time>2018-03-07T08:37:39Z</time>
      </trkpt>
      <trkpt lat="46.65538" lon="6.0644">
        <ele>864.36</ele>
        <time>2018-03-07T08:37:50Z</time>
      </trkpt>
      <trkpt lat="46.65547" lon="6.06449">
        <ele>863.88</ele>
        <time>2018-03-07T08:37:58Z</time>
      </trkpt>
      <trkpt lat="46.65564" lon="6.06468">
        <ele>863.88</ele>
        <time>2018-03-07T08:38:12Z</time>
      </trkpt>
      <trkpt lat="46.65576" lon="6.06491">
        <ele>862.92</ele>
        <time>2018-03-07T08:38:27Z</time>
      </trkpt>
      <trkpt lat="46.6558" lon="6.06502">
        <ele>863.4</ele>
        <time>2018-03-07T08:38:34Z</time>
      </trkpt>
      <trkpt lat="46.65585" lon="6.0651">
        <ele>862.92</ele>
        <time>2018-03-07T08:38:39Z</time>
      </trkpt>
      <trkpt lat="46.65598" lon="6.06537">
        <ele>862.92</ele>
        <time>2018-03-07T08:38:54Z</time>
      </trkpt>
      <trkpt lat="46.656" lon="6.0654">
        <ele>862.92</ele>
        <time>2018-03-07T08:38:56Z</time>
      </trkpt>
      <trkpt lat="46.65606" lon="6.06552">
        <ele>863.4</ele>
        <time>2018-03-07T08:39:03Z</time>
      </trkpt>
      <trkpt lat="46.65619" lon="6.06577">
        <ele>862.92</ele>
        <time>2018-03-07T08:39:18Z</time>
      </trkpt>
      <trkpt lat="46.65621" lon="6.06583">
        <ele>862.92</ele>
        <time>2018-03-07T08:39:22Z</time>
      </trkpt>
      <trkpt lat="46.65631" lon="6.06609">
        <ele>862.92</ele>
        <time>2018-03-07T08:39:36Z</time>
      </trkpt>
      <trkpt lat="46.65642" lon="6.06632">
        <ele>862.92</ele>
        <time>2018-03-07T08:39:50Z</time>
      </trkpt>
      <trkpt lat="46.65651" lon="6.06647">
        <ele>863.4</ele>
        <time>2018-03-07T08:39:59Z</time>
      </trkpt>
      <trkpt lat="46.65663" lon="6.06645">
        <ele>863.88</ele>
        <time>2018-03-07T08:40:09Z</time>
      </trkpt>
      <trkpt lat="46.65679" lon="6.06648">
        <ele>865.32</ele>
        <time>2018-03-07T08:40:21Z</time>
      </trkpt>
      <trkpt lat="46.65692" lon="6.06655">
        <ele>866.77</ele>
        <time>2018-03-07T08:40:31Z</time>
      </trkpt>
      <trkpt lat="46.65704" lon="6.06674">
        <ele>867.25</ele>
        <time>2018-03-07T08:40:46Z</time>
      </trkpt>
      <trkpt lat="46.65715" lon="6.06695">
        <ele>868.69</ele>
        <time>2018-03-07T08:41:01Z</time>
      </trkpt>
      <trkpt lat="46.6573" lon="6.06721">
        <ele>870.13</ele>
        <time>2018-03-07T08:41:18Z</time>
      </trkpt>
      <trkpt lat="46.65732" lon="6.06726">
        <ele>870.61</ele>
        <time>2018-03-07T08:41:22Z</time>
      </trkpt>
      <trkpt lat="46.65743" lon="6.06747">
        <ele>872.53</ele>
        <time>2018-03-07T08:41:37Z</time>
      </trkpt>
      <trkpt lat="46.65748" lon="6.0676">
        <ele>873.98</ele>
        <time>2018-03-07T08:41:47Z</time>
      </trkpt>
      <trkpt lat="46.65755" lon="6.06775">
        <ele>874.46</ele>
        <time>2018-03-07T08:41:57Z</time>
      </trkpt>
      <trkpt lat="46.6576" lon="6.06785">
        <ele>875.42</ele>
        <time>2018-03-07T08:42:04Z</time>
      </trkpt>
      <trkpt lat="46.65766" lon="6.06796">
        <ele>875.42</ele>
        <time>2018-03-07T08:42:11Z</time>
      </trkpt>
      <trkpt lat="46.65778" lon="6.06816">
        <ele>876.38</ele>
        <time>2018-03-07T08:42:24Z</time>
      </trkpt>
      <trkpt lat="46.65785" lon="6.06831">
        <ele>877.34</ele>
        <time>2018-03-07T08:42:34Z</time>
      </trkpt>
      <trkpt lat="46.65791" lon="6.06846">
        <ele>878.3</ele>
        <time>2018-03-07T08:42:44Z</time>
      </trkpt>
      <trkpt lat="46.65803" lon="6.06862">
        <ele>879.26</ele>
        <time>2018-03-07T08:42:57Z</time>
      </trkpt>
      <trkpt lat="46.65818" lon="6.06874">
        <ele>880.22</ele>
        <time>2018-03-07T08:43:09Z</time>
      </trkpt>
      <trkpt lat="46.65837" lon="6.06887">
        <ele>882.15</ele>
        <time>2018-03-07T08:43:26Z</time>
      </trkpt>
      <trkpt lat="46.65845" lon="6.06891">
        <ele>882.63</ele>
        <time>2018-03-07T08:43:39Z</time>
      </trkpt>
      <trkpt lat="46.65851" lon="6.06894">
        <ele>883.59</ele>
        <time>2018-03-07T08:43:49Z</time>
      </trkpt>
      <trkpt lat="46.65852" lon="6.06894">
        <ele>884.07</ele>
        <time>2018-03-07T08:43:52Z</time>
      </trkpt>
      <trkpt lat="46.65856" lon="6.06894">
        <ele>884.55</ele>
        <time>2018-03-07T08:44:05Z</time>
      </trkpt>
      <trkpt lat="46.65864" lon="6.06886">
        <ele>885.03</ele>
        <time>2018-03-07T08:44:17Z</time>
      </trkpt>
      <trkpt lat="46.65872" lon="6.06874">
        <ele>885.51</ele>
        <time>2018-03-07T08:44:25Z</time>
      </trkpt>
      <trkpt lat="46.65874" lon="6.06872">
        <ele>885.99</ele>
        <time>2018-03-07T08:44:27Z</time>
      </trkpt>
      <trkpt lat="46.65885" lon="6.0686">
        <ele>885.99</ele>
        <time>2018-03-07T08:44:37Z</time>
      </trkpt>
      <trkpt lat="46.65899" lon="6.06846">
        <ele>886.47</ele>
        <time>2018-03-07T08:44:49Z</time>
      </trkpt>
      <trkpt lat="46.65902" lon="6.06844">
        <ele>885.99</ele>
        <time>2018-03-07T08:44:51Z</time>
      </trkpt>
      <trkpt lat="46.65907" lon="6.06838">
        <ele>886.95</ele>
        <time>2018-03-07T08:44:56Z</time>
      </trkpt>
      <trkpt lat="46.65912" lon="6.06834">
        <ele>886.95</ele>
        <time>2018-03-07T08:45:00Z</time>
      </trkpt>
      <trkpt lat="46.6592" lon="6.06826">
        <ele>886.95</ele>
        <time>2018-03-07T08:45:07Z</time>
      </trkpt>
      <trkpt lat="46.65929" lon="6.06816">
        <ele>888.4</ele>
        <time>2018-03-07T08:45:15Z</time>
      </trkpt>
      <trkpt lat="46.65934" lon="6.06811">
        <ele>888.88</ele>
        <time>2018-03-07T08:45:19Z</time>
      </trkpt>
      <trkpt lat="46.65938" lon="6.06804">
        <ele>889.84</ele>
        <time>2018-03-07T08:45:24Z</time>
      </trkpt>
      <trkpt lat="46.65946" lon="6.06792">
        <ele>892.24</ele>
        <time>2018-03-07T08:45:35Z</time>
      </trkpt>
      <trkpt lat="46.6595" lon="6.06786">
        <ele>893.2</ele>
        <time>2018-03-07T08:45:40Z</time>
      </trkpt>
      <trkpt lat="46.65953" lon="6.06782">
        <ele>893.2</ele>
        <time>2018-03-07T08:45:44Z</time>
      </trkpt>
      <trkpt lat="46.65964" lon="6.06767">
        <ele>896.57</ele>
        <time>2018-03-07T08:45:57Z</time>
      </trkpt>
      <trkpt lat="46.65973" lon="6.06756">
        <ele>898.01</ele>
        <time>2018-03-07T08:46:09Z</time>
      </trkpt>
      <trkpt lat="46.65974" lon="6.06755">
        <ele>898.49</ele>
        <time>2018-03-07T08:46:10Z</time>
      </trkpt>
      <trkpt lat="46.65983" lon="6.06745">
        <ele>899.45</ele>
        <time>2018-03-07T08:46:20Z</time>
      </trkpt>
      <trkpt lat="46.65986" lon="6.06741">
        <ele>900.89</ele>
        <time>2018-03-07T08:46:23Z</time>
      </trkpt>
      <trkpt lat="46.65991" lon="6.06735">
        <ele>902.33</ele>
        <time>2018-03-07T08:46:30Z</time>
      </trkpt>
      <trkpt lat="46.66001" lon="6.06723">
        <ele>904.26</ele>
        <time>2018-03-07T08:46:44Z</time>
      </trkpt>
      <trkpt lat="46.66002" lon="6.06722">
        <ele>904.26</ele>
        <time>2018-03-07T08:46:45Z</time>
      </trkpt>
      <trkpt lat="46.66016" lon="6.06712">
        <ele>907.14</ele>
        <time>2018-03-07T08:47:00Z</time>
      </trkpt>
      <trkpt lat="46.66031" lon="6.067">
        <ele>909.54</ele>
        <time>2018-03-07T08:47:14Z</time>
      </trkpt>
      <trkpt lat="46.66039" lon="6.06691">
        <ele>910.51</ele>
        <time>2018-03-07T08:47:25Z</time>
      </trkpt>
      <trkpt lat="46.66052" lon="6.0668">
        <ele>912.91</ele>
        <time>2018-03-07T08:47:38Z</time>
      </trkpt>
      <trkpt lat="46.66062" lon="6.06669">
        <ele>914.35</ele>
        <time>2018-03-07T08:47:50Z</time>
      </trkpt>
      <trkpt lat="46.6607" lon="6.0666">
        <ele>915.79</ele>
        <time>2018-03-07T08:48:00Z</time>
      </trkpt>
      <trkpt lat="46.66072" lon="6.06658">
        <ele>916.27</ele>
        <time>2018-03-07T08:48:03Z</time>
      </trkpt>
      <trkpt lat="46.66077" lon="6.06651">
        <ele>916.75</ele>
        <time>2018-03-07T08:48:10Z</time>
      </trkpt>
      <trkpt lat="46.6608" lon="6.06649">
        <ele>917.72</ele>
        <time>2018-03-07T08:48:13Z</time>
      </trkpt>
      <trkpt lat="46.66086" lon="6.06639">
        <ele>918.2</ele>
        <time>2018-03-07T08:48:20Z</time>
      </trkpt>
      <trkpt lat="46.66091" lon="6.06631">
        <ele>919.64</ele>
        <time>2018-03-07T08:48:26Z</time>
      </trkpt>
      <trkpt lat="46.66093" lon="6.06627">
        <ele>919.16</ele>
        <time>2018-03-07T08:48:29Z</time>
      </trkpt>
      <trkpt lat="46.66098" lon="6.06618">
        <ele>920.12</ele>
        <time>2018-03-07T08:48:36Z</time>
      </trkpt>
      <trkpt lat="46.66104" lon="6.06604">
        <ele>921.08</ele>
        <time>2018-03-07T08:48:45Z</time>
      </trkpt>
      <trkpt lat="46.66108" lon="6.06597">
        <ele>922.04</ele>
        <time>2018-03-07T08:48:51Z</time>
      </trkpt>
      <trkpt lat="46.66111" lon="6.06592">
        <ele>922.52</ele>
        <time>2018-03-07T08:48:55Z</time>
      </trkpt>
      <trkpt lat="46.66115" lon="6.06587">
        <ele>923</ele>
        <time>2018-03-07T08:48:59Z</time>
      </trkpt>
      <trkpt lat="46.66125" lon="6.06571">
        <ele>924.45</ele>
        <time>2018-03-07T08:49:12Z</time>
      </trkpt>
      <trkpt lat="46.66129" lon="6.06563">
        <ele>924.93</ele>
        <time>2018-03-07T08:49:18Z</time>
      </trkpt>
      <trkpt lat="46.66131" lon="6.0656">
        <ele>925.41</ele>
        <time>2018-03-07T08:49:20Z</time>
      </trkpt>
      <trkpt lat="46.66136" lon="6.06549">
        <ele>926.37</ele>
        <time>2018-03-07T08:49:28Z</time>
      </trkpt>
      <trkpt lat="46.66142" lon="6.06543">
        <ele>926.85</ele>
        <time>2018-03-07T08:49:33Z</time>
      </trkpt>
      <trkpt lat="46.66145" lon="6.06537">
        <ele>927.33</ele>
        <time>2018-03-07T08:49:37Z</time>
      </trkpt>
      <trkpt lat="46.66148" lon="6.06535">
        <ele>927.33</ele>
        <time>2018-03-07T08:49:39Z</time>
      </trkpt>
      <trkpt lat="46.66155" lon="6.06524">
        <ele>928.29</ele>
        <time>2018-03-07T08:49:53Z</time>
      </trkpt>
      <trkpt lat="46.6616" lon="6.06511">
        <ele>928.77</ele>
        <time>2018-03-07T08:50:04Z</time>
      </trkpt>
      <trkpt lat="46.66153" lon="6.06499">
        <ele>928.77</ele>
        <time>2018-03-07T08:50:12Z</time>
      </trkpt>
      <trkpt lat="46.66149" lon="6.06486">
        <ele>928.77</ele>
        <time>2018-03-07T08:50:21Z</time>
      </trkpt>
      <trkpt lat="46.66139" lon="6.06468">
        <ele>928.29</ele>
        <time>2018-03-07T08:50:33Z</time>
      </trkpt>
      <trkpt lat="46.66135" lon="6.06463">
        <ele>928.77</ele>
        <time>2018-03-07T08:50:37Z</time>
      </trkpt>
      <trkpt lat="46.66119" lon="6.06449">
        <ele>929.25</ele>
        <time>2018-03-07T08:50:52Z</time>
      </trkpt>
      <trkpt lat="46.66103" lon="6.06434">
        <ele>929.73</ele>
        <time>2018-03-07T08:51:08Z</time>
      </trkpt>
      <trkpt lat="46.66089" lon="6.06425">
        <ele>930.21</ele>
        <time>2018-03-07T08:51:21Z</time>
      </trkpt>
      <trkpt lat="46.66087" lon="6.06424">
        <ele>931.65</ele>
        <time>2018-03-07T08:51:25Z</time>
      </trkpt>
      <trkpt lat="46.66099" lon="6.0643">
        <ele>931.17</ele>
        <time>2018-03-07T08:51:38Z</time>
      </trkpt>
      <trkpt lat="46.66101" lon="6.06431">
        <ele>931.17</ele>
        <time>2018-03-07T08:51:40Z</time>
      </trkpt>
      <trkpt lat="46.66107" lon="6.06436">
        <ele>931.17</ele>
        <time>2018-03-07T08:51:45Z</time>
      </trkpt>
      <trkpt lat="46.66125" lon="6.06454">
        <ele>929.73</ele>
        <time>2018-03-07T08:52:01Z</time>
      </trkpt>
      <trkpt lat="46.66135" lon="6.06464">
        <ele>929.25</ele>
        <time>2018-03-07T08:52:11Z</time>
      </trkpt>
      <trkpt lat="46.66144" lon="6.06478">
        <ele>929.25</ele>
        <time>2018-03-07T08:52:22Z</time>
      </trkpt>
      <trkpt lat="46.66158" lon="6.06498">
        <ele>929.73</ele>
        <time>2018-03-07T08:52:37Z</time>
      </trkpt>
      <trkpt lat="46.66167" lon="6.06509">
        <ele>929.25</ele>
        <time>2018-03-07T08:52:45Z</time>
      </trkpt>
      <trkpt lat="46.66181" lon="6.0653">
        <ele>929.25</ele>
        <time>2018-03-07T08:52:59Z</time>
      </trkpt>
      <trkpt lat="46.66195" lon="6.0655">
        <ele>928.29</ele>
        <time>2018-03-07T08:53:11Z</time>
      </trkpt>
      <trkpt lat="46.66204" lon="6.06571">
        <ele>928.29</ele>
        <time>2018-03-07T08:53:24Z</time>
      </trkpt>
      <trkpt lat="46.66209" lon="6.06579">
        <ele>926.85</ele>
        <time>2018-03-07T08:53:31Z</time>
      </trkpt>
      <trkpt lat="46.66212" lon="6.06585">
        <ele>926.85</ele>
        <time>2018-03-07T08:53:35Z</time>
      </trkpt>
      <trkpt lat="46.66216" lon="6.06593">
        <ele>926.37</ele>
        <time>2018-03-07T08:53:41Z</time>
      </trkpt>
      <trkpt lat="46.66218" lon="6.06598">
        <ele>926.37</ele>
        <time>2018-03-07T08:53:44Z</time>
      </trkpt>
      <trkpt lat="46.66228" lon="6.06615">
        <ele>924.45</ele>
        <time>2018-03-07T08:53:56Z</time>
      </trkpt>
      <trkpt lat="46.66229" lon="6.06616">
        <ele>924.45</ele>
        <time>2018-03-07T08:53:57Z</time>
      </trkpt>
      <trkpt lat="46.66241" lon="6.06639">
        <ele>923</ele>
        <time>2018-03-07T08:54:12Z</time>
      </trkpt>
      <trkpt lat="46.66246" lon="6.06648">
        <ele>922.04</ele>
        <time>2018-03-07T08:54:18Z</time>
      </trkpt>
      <trkpt lat="46.66261" lon="6.06673">
        <ele>921.08</ele>
        <time>2018-03-07T08:54:33Z</time>
      </trkpt>
      <trkpt lat="46.66264" lon="6.06677">
        <ele>920.6</ele>
        <time>2018-03-07T08:54:36Z</time>
      </trkpt>
      <trkpt lat="46.66269" lon="6.06678">
        <ele>920.12</ele>
        <time>2018-03-07T08:54:41Z</time>
      </trkpt>
      <trkpt lat="46.66279" lon="6.06702">
        <ele>919.64</ele>
        <time>2018-03-07T08:54:53Z</time>
      </trkpt>
      <trkpt lat="46.66281" lon="6.06708">
        <ele>919.64</ele>
        <time>2018-03-07T08:54:56Z</time>
      </trkpt>
      <trkpt lat="46.6629" lon="6.06726">
        <ele>919.64</ele>
        <time>2018-03-07T08:55:06Z</time>
      </trkpt>
      <trkpt lat="46.66298" lon="6.06737">
        <ele>919.16</ele>
        <time>2018-03-07T08:55:15Z</time>
      </trkpt>
      <trkpt lat="46.663" lon="6.0674">
        <ele>918.68</ele>
        <time>2018-03-07T08:55:17Z</time>
      </trkpt>
      <trkpt lat="46.66306" lon="6.06751">
        <ele>918.2</ele>
        <time>2018-03-07T08:55:27Z</time>
      </trkpt>
      <trkpt lat="46.66309" lon="6.06755">
        <ele>918.68</ele>
        <time>2018-03-07T08:55:30Z</time>
      </trkpt>
      <trkpt lat="46.66312" lon="6.06761">
        <ele>918.2</ele>
        <time>2018-03-07T08:55:34Z</time>
      </trkpt>
      <trkpt lat="46.66316" lon="6.06772">
        <ele>918.2</ele>
        <time>2018-03-07T08:55:39Z</time>
      </trkpt>
      <trkpt lat="46.6633" lon="6.06799">
        <ele>917.72</ele>
        <time>2018-03-07T08:55:54Z</time>
      </trkpt>
      <trkpt lat="46.66341" lon="6.06812">
        <ele>917.24</ele>
        <time>2018-03-07T08:56:05Z</time>
      </trkpt>
      <trkpt lat="46.66345" lon="6.0682">
        <ele>917.24</ele>
        <time>2018-03-07T08:56:14Z</time>
      </trkpt>
      <trkpt lat="46.6636" lon="6.06837">
        <ele>916.75</ele>
        <time>2018-03-07T08:56:25Z</time>
      </trkpt>
      <trkpt lat="46.66368" lon="6.06845">
        <ele>916.75</ele>
        <time>2018-03-07T08:56:33Z</time>
      </trkpt>
      <trkpt lat="46.66371" lon="6.06855">
        <ele>916.75</ele>
        <time>2018-03-07T08:56:37Z</time>
      </trkpt>
      <trkpt lat="46.66374" lon="6.06873">
        <ele>916.27</ele>
        <time>2018-03-07T08:56:45Z</time>
      </trkpt>
      <trkpt lat="46.66378" lon="6.06905">
        <ele>916.27</ele>
        <time>2018-03-07T08:56:59Z</time>
      </trkpt>
      <trkpt lat="46.66378" lon="6.06911">
        <ele>915.79</ele>
        <time>2018-03-07T08:57:02Z</time>
      </trkpt>
      <trkpt lat="46.66386" lon="6.06936">
        <ele>913.39</ele>
        <time>2018-03-07T08:57:15Z</time>
      </trkpt>
      <trkpt lat="46.66395" lon="6.06953">
        <ele>912.43</ele>
        <time>2018-03-07T08:57:26Z</time>
      </trkpt>
      <trkpt lat="46.66397" lon="6.06955">
        <ele>912.43</ele>
        <time>2018-03-07T08:57:29Z</time>
      </trkpt>
      <trkpt lat="46.66401" lon="6.06976">
        <ele>910.99</ele>
        <time>2018-03-07T08:57:40Z</time>
      </trkpt>
      <trkpt lat="46.66399" lon="6.06995">
        <ele>908.1</ele>
        <time>2018-03-07T08:57:55Z</time>
      </trkpt>
      <trkpt lat="46.664" lon="6.06997">
        <ele>908.1</ele>
        <time>2018-03-07T08:58:01Z</time>
      </trkpt>
      <trkpt lat="46.664" lon="6.07019">
        <ele>905.7</ele>
        <time>2018-03-07T08:58:14Z</time>
      </trkpt>
      <trkpt lat="46.66401" lon="6.07037">
        <ele>903.3</ele>
        <time>2018-03-07T08:58:26Z</time>
      </trkpt>
      <trkpt lat="46.66401" lon="6.0704">
        <ele>903.3</ele>
        <time>2018-03-07T08:58:28Z</time>
      </trkpt>
      <trkpt lat="46.66402" lon="6.07043">
        <ele>902.82</ele>
        <time>2018-03-07T08:58:30Z</time>
      </trkpt>
      <trkpt lat="46.66411" lon="6.07066">
        <ele>900.41</ele>
        <time>2018-03-07T08:58:44Z</time>
      </trkpt>
      <trkpt lat="46.66419" lon="6.07086">
        <ele>897.53</ele>
        <time>2018-03-07T08:58:57Z</time>
      </trkpt>
      <trkpt lat="46.66427" lon="6.07103">
        <ele>895.12</ele>
        <time>2018-03-07T08:59:09Z</time>
      </trkpt>
      <trkpt lat="46.66429" lon="6.07126">
        <ele>892.24</ele>
        <time>2018-03-07T08:59:22Z</time>
      </trkpt>
      <trkpt lat="46.66431" lon="6.07138">
        <ele>890.8</ele>
        <time>2018-03-07T08:59:28Z</time>
      </trkpt>
      <trkpt lat="46.66432" lon="6.07144">
        <ele>890.8</ele>
        <time>2018-03-07T08:59:30Z</time>
      </trkpt>
      <trkpt lat="46.66436" lon="6.07159">
        <ele>889.36</ele>
        <time>2018-03-07T08:59:38Z</time>
      </trkpt>
      <trkpt lat="46.66436" lon="6.07177">
        <ele>886.47</ele>
        <time>2018-03-07T08:59:49Z</time>
      </trkpt>
      <trkpt lat="46.66431" lon="6.07198">
        <ele>884.07</ele>
        <time>2018-03-07T08:59:59Z</time>
      </trkpt>
      <trkpt lat="46.66428" lon="6.0722">
        <ele>882.63</ele>
        <time>2018-03-07T09:00:07Z</time>
      </trkpt>
      <trkpt lat="46.66427" lon="6.07224">
        <ele>882.63</ele>
        <time>2018-03-07T09:00:09Z</time>
      </trkpt>
      <trkpt lat="46.66427" lon="6.0723">
        <ele>882.63</ele>
        <time>2018-03-07T09:00:20Z</time>
      </trkpt>
      <trkpt lat="46.66421" lon="6.07253">
        <ele>881.67</ele>
        <time>2018-03-07T09:00:34Z</time>
      </trkpt>
      <trkpt lat="46.66413" lon="6.07273">
        <ele>880.71</ele>
        <time>2018-03-07T09:00:46Z</time>
      </trkpt>
      <trkpt lat="46.66401" lon="6.07292">
        <ele>879.26</ele>
        <time>2018-03-07T09:00:56Z</time>
      </trkpt>
      <trkpt lat="46.66395" lon="6.07305">
        <ele>877.82</ele>
        <time>2018-03-07T09:01:04Z</time>
      </trkpt>
      <trkpt lat="46.66388" lon="6.07321">
        <ele>876.38</ele>
        <time>2018-03-07T09:01:15Z</time>
      </trkpt>
      <trkpt lat="46.6638" lon="6.07335">
        <ele>875.9</ele>
        <time>2018-03-07T09:01:22Z</time>
      </trkpt>
      <trkpt lat="46.66371" lon="6.07354">
        <ele>875.42</ele>
        <time>2018-03-07T09:01:32Z</time>
      </trkpt>
      <trkpt lat="46.6637" lon="6.07356">
        <ele>875.42</ele>
        <time>2018-03-07T09:01:34Z</time>
      </trkpt>
      <trkpt lat="46.66368" lon="6.07362">
        <ele>875.42</ele>
        <time>2018-03-07T09:01:38Z</time>
      </trkpt>
      <trkpt lat="46.66367" lon="6.07367">
        <ele>874.94</ele>
        <time>2018-03-07T09:01:40Z</time>
      </trkpt>
      <trkpt lat="46.66366" lon="6.07369">
        <ele>874.94</ele>
        <time>2018-03-07T09:01:41Z</time>
      </trkpt>
      <trkpt lat="46.66361" lon="6.07383">
        <ele>873.98</ele>
        <time>2018-03-07T09:01:47Z</time>
      </trkpt>
      <trkpt lat="46.66352" lon="6.07405">
        <ele>873.01</ele>
        <time>2018-03-07T09:01:59Z</time>
      </trkpt>
      <trkpt lat="46.6635" lon="6.07406">
        <ele>873.01</ele>
        <time>2018-03-07T09:02:01Z</time>
      </trkpt>
      <trkpt lat="46.66325" lon="6.07393">
        <ele>870.61</ele>
        <time>2018-03-07T09:02:16Z</time>
      </trkpt>
      <trkpt lat="46.66321" lon="6.07387">
        <ele>871.57</ele>
        <time>2018-03-07T09:02:28Z</time>
      </trkpt>
      <trkpt lat="46.66321" lon="6.07384">
        <ele>871.09</ele>
        <time>2018-03-07T09:02:43Z</time>
      </trkpt>
      <trkpt lat="46.66321" lon="6.07384">
        <ele>871.09</ele>
        <time>2018-03-07T09:02:44Z</time>
      </trkpt>
      <trkpt lat="46.6632" lon="6.07383">
        <ele>870.61</ele>
        <time>2018-03-07T09:02:46Z</time>
      </trkpt>
      <trkpt lat="46.66316" lon="6.07379">
        <ele>869.65</ele>
        <time>2018-03-07T09:02:50Z</time>
      </trkpt>
      <trkpt lat="46.66301" lon="6.07366">
        <ele>867.73</ele>
        <time>2018-03-07T09:03:04Z</time>
      </trkpt>
      <trkpt lat="46.66283" lon="6.07347">
        <ele>867.73</ele>
        <time>2018-03-07T09:03:18Z</time>
      </trkpt>
      <trkpt lat="46.66269" lon="6.07333">
        <ele>867.25</ele>
        <time>2018-03-07T09:03:29Z</time>
      </trkpt>
      <trkpt lat="46.66249" lon="6.07311">
        <ele>866.77</ele>
        <time>2018-03-07T09:03:42Z</time>
      </trkpt>
      <trkpt lat="46.66233" lon="6.07297">
        <ele>867.25</ele>
        <time>2018-03-07T09:03:57Z</time>
      </trkpt>
      <trkpt lat="46.66214" lon="6.07288">
        <ele>867.25</ele>
        <time>2018-03-07T09:04:12Z</time>
      </trkpt>
      <trkpt lat="46.66193" lon="6.0729">
        <ele>866.77</ele>
        <time>2018-03-07T09:04:28Z</time>
      </trkpt>
      <trkpt lat="46.66187" lon="6.07291">
        <ele>867.25</ele>
        <time>2018-03-07T09:04:33Z</time>
      </trkpt>
      <trkpt lat="46.6619" lon="6.07305">
        <ele>865.32</ele>
        <time>2018-03-07T09:04:42Z</time>
      </trkpt>
      <trkpt lat="46.66191" lon="6.07309">
        <ele>865.8</ele>
        <time>2018-03-07T09:04:46Z</time>
      </trkpt>
      <trkpt lat="46.66183" lon="6.0731">
        <ele>864.84</ele>
        <time>2018-03-07T09:04:57Z</time>
      </trkpt>
      <trkpt lat="46.6617" lon="6.07304">
        <ele>864.36</ele>
        <time>2018-03-07T09:05:08Z</time>
      </trkpt>
      <trkpt lat="46.66158" lon="6.07304">
        <ele>863.88</ele>
        <time>2018-03-07T09:05:18Z</time>
      </trkpt>
      <trkpt lat="46.66144" lon="6.073">
        <ele>863.4</ele>
        <time>2018-03-07T09:05:29Z</time>
      </trkpt>
      <trkpt lat="46.66136" lon="6.07299">
        <ele>862.92</ele>
        <time>2018-03-07T09:05:35Z</time>
      </trkpt>
      <trkpt lat="46.66125" lon="6.07296">
        <ele>862.92</ele>
        <time>2018-03-07T09:05:44Z</time>
      </trkpt>
      <trkpt lat="46.66102" lon="6.07306">
        <ele>862.92</ele>
        <time>2018-03-07T09:05:58Z</time>
      </trkpt>
      <trkpt lat="46.66086" lon="6.07324">
        <ele>862.92</ele>
        <time>2018-03-07T09:06:12Z</time>
      </trkpt>
      <trkpt lat="46.66082" lon="6.07333">
        <ele>862.92</ele>
        <time>2018-03-07T09:06:19Z</time>
      </trkpt>
      <trkpt lat="46.66077" lon="6.07342">
        <ele>862.92</ele>
        <time>2018-03-07T09:06:25Z</time>
      </trkpt>
      <trkpt lat="46.66066" lon="6.07362">
        <ele>863.88</ele>
        <time>2018-03-07T09:06:37Z</time>
      </trkpt>
      <trkpt lat="46.66055" lon="6.0738">
        <ele>863.88</ele>
        <time>2018-03-07T09:06:49Z</time>
      </trkpt>
      <trkpt lat="46.66052" lon="6.07387">
        <ele>863.88</ele>
        <time>2018-03-07T09:06:54Z</time>
      </trkpt>
      <trkpt lat="46.66049" lon="6.07395">
        <ele>863.88</ele>
        <time>2018-03-07T09:06:58Z</time>
      </trkpt>
      <trkpt lat="46.66043" lon="6.07406">
        <ele>863.88</ele>
        <time>2018-03-07T09:07:07Z</time>
      </trkpt>
      <trkpt lat="46.6603" lon="6.07421">
        <ele>863.4</ele>
        <time>2018-03-07T09:07:19Z</time>
      </trkpt>
      <trkpt lat="46.66023" lon="6.07427">
        <ele>864.36</ele>
        <time>2018-03-07T09:07:25Z</time>
      </trkpt>
      <trkpt lat="46.66006" lon="6.07438">
        <ele>862.92</ele>
        <time>2018-03-07T09:07:38Z</time>
      </trkpt>
      <trkpt lat="46.66003" lon="6.07442">
        <ele>862.92</ele>
        <time>2018-03-07T09:07:42Z</time>
      </trkpt>
      <trkpt lat="46.65996" lon="6.0744">
        <ele>862.44</ele>
        <time>2018-03-07T09:07:55Z</time>
      </trkpt>
      <trkpt lat="46.65996" lon="6.07441">
        <ele>862.44</ele>
        <time>2018-03-07T09:07:56Z</time>
      </trkpt>
      <trkpt lat="46.6599" lon="6.07447">
        <ele>861.48</ele>
        <time>2018-03-07T09:08:08Z</time>
      </trkpt>
      <trkpt lat="46.6599" lon="6.07448">
        <ele>861.48</ele>
        <time>2018-03-07T09:08:09Z</time>
      </trkpt>
      <trkpt lat="46.65999" lon="6.07464">
        <ele>861</ele>
        <time>2018-03-07T09:08:19Z</time>
      </trkpt>
      <trkpt lat="46.65998" lon="6.07467">
        <ele>861</ele>
        <time>2018-03-07T09:08:21Z</time>
      </trkpt>
      <trkpt lat="46.65991" lon="6.07486">
        <ele>861.48</ele>
        <time>2018-03-07T09:08:30Z</time>
      </trkpt>
      <trkpt lat="46.65986" lon="6.07502">
        <ele>861.48</ele>
        <time>2018-03-07T09:08:39Z</time>
      </trkpt>
      <trkpt lat="46.65983" lon="6.07519">
        <ele>861</ele>
        <time>2018-03-07T09:08:48Z</time>
      </trkpt>
      <trkpt lat="46.65981" lon="6.07535">
        <ele>861.48</ele>
        <time>2018-03-07T09:09:02Z</time>
      </trkpt>
      <trkpt lat="46.65977" lon="6.0754">
        <ele>861.48</ele>
        <time>2018-03-07T09:09:12Z</time>
      </trkpt>
      <trkpt lat="46.65976" lon="6.07539">
        <ele>861.96</ele>
        <time>2018-03-07T09:09:31Z</time>
      </trkpt>
      <trkpt lat="46.65969" lon="6.07542">
        <ele>861.96</ele>
        <time>2018-03-07T09:09:44Z</time>
      </trkpt>
      <trkpt lat="46.65964" lon="6.07547">
        <ele>861.96</ele>
        <time>2018-03-07T09:09:48Z</time>
      </trkpt>
      <trkpt lat="46.65955" lon="6.07546">
        <ele>861.48</ele>
        <time>2018-03-07T09:09:56Z</time>
      </trkpt>
      <trkpt lat="46.65948" lon="6.0755">
        <ele>861.48</ele>
        <time>2018-03-07T09:10:00Z</time>
      </trkpt>
      <trkpt lat="46.65938" lon="6.07551">
        <ele>861</ele>
        <time>2018-03-07T09:10:14Z</time>
      </trkpt>
      <trkpt lat="46.65926" lon="6.07558">
        <ele>861.96</ele>
        <time>2018-03-07T09:10:24Z</time>
      </trkpt>
      <trkpt lat="46.65917" lon="6.07556">
        <ele>861.48</ele>
        <time>2018-03-07T09:10:35Z</time>
      </trkpt>
      <trkpt lat="46.65913" lon="6.07555">
        <ele>861</ele>
        <time>2018-03-07T09:10:38Z</time>
      </trkpt>
      <trkpt lat="46.65902" lon="6.07551">
        <ele>861.96</ele>
        <time>2018-03-07T09:10:50Z</time>
      </trkpt>
      <trkpt lat="46.65894" lon="6.07549">
        <ele>861.96</ele>
        <time>2018-03-07T09:11:04Z</time>
      </trkpt>
      <trkpt lat="46.65889" lon="6.07551">
        <ele>861.48</ele>
        <time>2018-03-07T09:11:08Z</time>
      </trkpt>
      <trkpt lat="46.65877" lon="6.0755">
        <ele>861.96</ele>
        <time>2018-03-07T09:11:21Z</time>
      </trkpt>
      <trkpt lat="46.65867" lon="6.0754">
        <ele>862.92</ele>
        <time>2018-03-07T09:11:32Z</time>
      </trkpt>
      <trkpt lat="46.65865" lon="6.07537">
        <ele>862.92</ele>
        <time>2018-03-07T09:11:34Z</time>
      </trkpt>
      <trkpt lat="46.65852" lon="6.07528">
        <ele>863.4</ele>
        <time>2018-03-07T09:11:46Z</time>
      </trkpt>
      <trkpt lat="46.65845" lon="6.0752">
        <ele>864.36</ele>
        <time>2018-03-07T09:11:52Z</time>
      </trkpt>
      <trkpt lat="46.65827" lon="6.07505">
        <ele>864.84</ele>
        <time>2018-03-07T09:12:07Z</time>
      </trkpt>
      <trkpt lat="46.65817" lon="6.07494">
        <ele>866.29</ele>
        <time>2018-03-07T09:12:19Z</time>
      </trkpt>
      <trkpt lat="46.65805" lon="6.07486">
        <ele>867.25</ele>
        <time>2018-03-07T09:12:31Z</time>
      </trkpt>
      <trkpt lat="46.6579" lon="6.07479">
        <ele>868.69</ele>
        <time>2018-03-07T09:12:44Z</time>
      </trkpt>
      <trkpt lat="46.65788" lon="6.07479">
        <ele>868.21</ele>
        <time>2018-03-07T09:12:45Z</time>
      </trkpt>
      <trkpt lat="46.6577" lon="6.07475">
        <ele>869.17</ele>
        <time>2018-03-07T09:13:00Z</time>
      </trkpt>
      <trkpt lat="46.65762" lon="6.07474">
        <ele>870.13</ele>
        <time>2018-03-07T09:13:07Z</time>
      </trkpt>
      <trkpt lat="46.65748" lon="6.07483">
        <ele>870.61</ele>
        <time>2018-03-07T09:13:20Z</time>
      </trkpt>
      <trkpt lat="46.65741" lon="6.0749">
        <ele>871.09</ele>
        <time>2018-03-07T09:13:27Z</time>
      </trkpt>
      <trkpt lat="46.65732" lon="6.07505">
        <ele>871.09</ele>
        <time>2018-03-07T09:13:39Z</time>
      </trkpt>
      <trkpt lat="46.65724" lon="6.0752">
        <ele>872.05</ele>
        <time>2018-03-07T09:13:49Z</time>
      </trkpt>
      <trkpt lat="46.65722" lon="6.07524">
        <ele>872.05</ele>
        <time>2018-03-07T09:13:52Z</time>
      </trkpt>
      <trkpt lat="46.65721" lon="6.0753">
        <ele>872.53</ele>
        <time>2018-03-07T09:13:56Z</time>
      </trkpt>
      <trkpt lat="46.65717" lon="6.0755">
        <ele>873.98</ele>
        <time>2018-03-07T09:14:11Z</time>
      </trkpt>
      <trkpt lat="46.65716" lon="6.07566">
        <ele>874.46</ele>
        <time>2018-03-07T09:14:22Z</time>
      </trkpt>
      <trkpt lat="46.65717" lon="6.07571">
        <ele>874.46</ele>
        <time>2018-03-07T09:14:25Z</time>
      </trkpt>
      <trkpt lat="46.65721" lon="6.07576">
        <ele>874.46</ele>
        <time>2018-03-07T09:14:29Z</time>
      </trkpt>
      <trkpt lat="46.65729" lon="6.07593">
        <ele>875.42</ele>
        <time>2018-03-07T09:14:41Z</time>
      </trkpt>
      <trkpt lat="46.65734" lon="6.07604">
        <ele>875.9</ele>
        <time>2018-03-07T09:14:48Z</time>
      </trkpt>
      <trkpt lat="46.6574" lon="6.07628">
        <ele>876.38</ele>
        <time>2018-03-07T09:15:02Z</time>
      </trkpt>
      <trkpt lat="46.65748" lon="6.07649">
        <ele>878.3</ele>
        <time>2018-03-07T09:15:17Z</time>
      </trkpt>
      <trkpt lat="46.65754" lon="6.07664">
        <ele>878.78</ele>
        <time>2018-03-07T09:15:28Z</time>
      </trkpt>
      <trkpt lat="46.65762" lon="6.07682">
        <ele>880.22</ele>
        <time>2018-03-07T09:15:41Z</time>
      </trkpt>
      <trkpt lat="46.65766" lon="6.07696">
        <ele>881.19</ele>
        <time>2018-03-07T09:15:54Z</time>
      </trkpt>
      <trkpt lat="46.65768" lon="6.07701">
        <ele>881.67</ele>
        <time>2018-03-07T09:16:07Z</time>
      </trkpt>
      <trkpt lat="46.65771" lon="6.07706">
        <ele>881.67</ele>
        <time>2018-03-07T09:16:21Z</time>
      </trkpt>
      <trkpt lat="46.6577" lon="6.07711">
        <ele>881.67</ele>
        <time>2018-03-07T09:16:45Z</time>
      </trkpt>
      <trkpt lat="46.65773" lon="6.07723">
        <ele>882.15</ele>
        <time>2018-03-07T09:16:52Z</time>
      </trkpt>
      <trkpt lat="46.65778" lon="6.07735">
        <ele>882.15</ele>
        <time>2018-03-07T09:17:00Z</time>
      </trkpt>
      <trkpt lat="46.65778" lon="6.0774">
        <ele>882.63</ele>
        <time>2018-03-07T09:17:03Z</time>
      </trkpt>
      <trkpt lat="46.65782" lon="6.07757">
        <ele>883.59</ele>
        <time>2018-03-07T09:17:14Z</time>
      </trkpt>
      <trkpt lat="46.65784" lon="6.07764">
        <ele>884.55</ele>
        <time>2018-03-07T09:17:17Z</time>
      </trkpt>
      <trkpt lat="46.65784" lon="6.0777">
        <ele>884.07</ele>
        <time>2018-03-07T09:17:20Z</time>
      </trkpt>
      <trkpt lat="46.65781" lon="6.07788">
        <ele>885.03</ele>
        <time>2018-03-07T09:17:30Z</time>
      </trkpt>
      <trkpt lat="46.65785" lon="6.07805">
        <ele>885.99</ele>
        <time>2018-03-07T09:17:41Z</time>
      </trkpt>
      <trkpt lat="46.65787" lon="6.07824">
        <ele>886.95</ele>
        <time>2018-03-07T09:17:52Z</time>
      </trkpt>
      <trkpt lat="46.65785" lon="6.07846">
        <ele>887.91</ele>
        <time>2018-03-07T09:18:04Z</time>
      </trkpt>
      <trkpt lat="46.65782" lon="6.07865">
        <ele>889.36</ele>
        <time>2018-03-07T09:18:17Z</time>
      </trkpt>
      <trkpt lat="46.65782" lon="6.07882">
        <ele>889.36</ele>
        <time>2018-03-07T09:18:26Z</time>
      </trkpt>
      <trkpt lat="46.65777" lon="6.07907">
        <ele>890.8</ele>
        <time>2018-03-07T09:18:41Z</time>
      </trkpt>
      <trkpt lat="46.65767" lon="6.07923">
        <ele>891.76</ele>
        <time>2018-03-07T09:18:54Z</time>
      </trkpt>
      <trkpt lat="46.65765" lon="6.07924">
        <ele>892.72</ele>
        <time>2018-03-07T09:18:57Z</time>
      </trkpt>
      <trkpt lat="46.65748" lon="6.07922">
        <ele>893.68</ele>
        <time>2018-03-07T09:19:11Z</time>
      </trkpt>
      <trkpt lat="46.65742" lon="6.0792">
        <ele>894.16</ele>
        <time>2018-03-07T09:19:26Z</time>
      </trkpt>
      <trkpt lat="46.65731" lon="6.07918">
        <ele>895.12</ele>
        <time>2018-03-07T09:19:37Z</time>
      </trkpt>
      <trkpt lat="46.65719" lon="6.07916">
        <ele>895.61</ele>
        <time>2018-03-07T09:19:52Z</time>
      </trkpt>
      <trkpt lat="46.65719" lon="6.07914">
        <ele>896.09</ele>
        <time>2018-03-07T09:20:21Z</time>
      </trkpt>
      <trkpt lat="46.65717" lon="6.07914">
        <ele>895.61</ele>
        <time>2018-03-07T09:20:45Z</time>
      </trkpt>
      <trkpt lat="46.65709" lon="6.07913">
        <ele>896.09</ele>
        <time>2018-03-07T09:21:07Z</time>
      </trkpt>
      <trkpt lat="46.65702" lon="6.07913">
        <ele>897.05</ele>
        <time>2018-03-07T09:21:12Z</time>
      </trkpt>
      <trkpt lat="46.657" lon="6.07908">
        <ele>896.09</ele>
        <time>2018-03-07T09:21:16Z</time>
      </trkpt>
      <trkpt lat="46.6568" lon="6.07908">
        <ele>898.01</ele>
        <time>2018-03-07T09:21:33Z</time>
      </trkpt>
      <trkpt lat="46.65666" lon="6.07915">
        <ele>899.45</ele>
        <time>2018-03-07T09:21:45Z</time>
      </trkpt>
      <trkpt lat="46.65661" lon="6.07922">
        <ele>899.93</ele>
        <time>2018-03-07T09:21:52Z</time>
      </trkpt>
      <trkpt lat="46.65648" lon="6.07932">
        <ele>901.37</ele>
        <time>2018-03-07T09:22:04Z</time>
      </trkpt>
      <trkpt lat="46.65639" lon="6.07941">
        <ele>902.33</ele>
        <time>2018-03-07T09:22:13Z</time>
      </trkpt>
      <trkpt lat="46.65636" lon="6.07953">
        <ele>903.78</ele>
        <time>2018-03-07T09:22:22Z</time>
      </trkpt>
      <trkpt lat="46.65632" lon="6.07954">
        <ele>903.3</ele>
        <time>2018-03-07T09:22:25Z</time>
      </trkpt>
      <trkpt lat="46.65619" lon="6.07953">
        <ele>904.26</ele>
        <time>2018-03-07T09:22:36Z</time>
      </trkpt>
      <trkpt lat="46.65604" lon="6.07946">
        <ele>905.7</ele>
        <time>2018-03-07T09:22:50Z</time>
      </trkpt>
      <trkpt lat="46.65588" lon="6.07934">
        <ele>906.66</ele>
        <time>2018-03-07T09:23:04Z</time>
      </trkpt>
      <trkpt lat="46.65574" lon="6.07922">
        <ele>908.58</ele>
        <time>2018-03-07T09:23:16Z</time>
      </trkpt>
      <trkpt lat="46.65557" lon="6.07908">
        <ele>910.03</ele>
        <time>2018-03-07T09:23:31Z</time>
      </trkpt>
      <trkpt lat="46.65552" lon="6.079">
        <ele>910.99</ele>
        <time>2018-03-07T09:23:43Z</time>
      </trkpt>
      <trkpt lat="46.65548" lon="6.07896">
        <ele>911.47</ele>
        <time>2018-03-07T09:23:58Z</time>
      </trkpt>
      <trkpt lat="46.65546" lon="6.07893">
        <ele>911.47</ele>
        <time>2018-03-07T09:24:06Z</time>
      </trkpt>
      <trkpt lat="46.65542" lon="6.07886">
        <ele>911.95</ele>
        <time>2018-03-07T09:24:12Z</time>
      </trkpt>
      <trkpt lat="46.65528" lon="6.07864">
        <ele>913.39</ele>
        <time>2018-03-07T09:24:26Z</time>
      </trkpt>
      <trkpt lat="46.65516" lon="6.0785">
        <ele>914.35</ele>
        <time>2018-03-07T09:24:36Z</time>
      </trkpt>
      <trkpt lat="46.65502" lon="6.07829">
        <ele>915.31</ele>
        <time>2018-03-07T09:24:51Z</time>
      </trkpt>
      <trkpt lat="46.65495" lon="6.07823">
        <ele>915.79</ele>
        <time>2018-03-07T09:24:57Z</time>
      </trkpt>
      <trkpt lat="46.6548" lon="6.07805">
        <ele>917.24</ele>
        <time>2018-03-07T09:25:11Z</time>
      </trkpt>
      <trkpt lat="46.65465" lon="6.07788">
        <ele>917.72</ele>
        <time>2018-03-07T09:25:25Z</time>
      </trkpt>
      <trkpt lat="46.65454" lon="6.07772">
        <ele>918.68</ele>
        <time>2018-03-07T09:25:38Z</time>
      </trkpt>
      <trkpt lat="46.65451" lon="6.07768">
        <ele>918.2</ele>
        <time>2018-03-07T09:25:41Z</time>
      </trkpt>
      <trkpt lat="46.65439" lon="6.07752">
        <ele>919.64</ele>
        <time>2018-03-07T09:25:55Z</time>
      </trkpt>
      <trkpt lat="46.65438" lon="6.0775">
        <ele>919.64</ele>
        <time>2018-03-07T09:25:56Z</time>
      </trkpt>
      <trkpt lat="46.65422" lon="6.07729">
        <ele>922.04</ele>
        <time>2018-03-07T09:26:12Z</time>
      </trkpt>
      <trkpt lat="46.65407" lon="6.07709">
        <ele>923.48</ele>
        <time>2018-03-07T09:26:27Z</time>
      </trkpt>
      <trkpt lat="46.65393" lon="6.07688">
        <ele>924.45</ele>
        <time>2018-03-07T09:26:42Z</time>
      </trkpt>
      <trkpt lat="46.65377" lon="6.07667">
        <ele>925.41</ele>
        <time>2018-03-07T09:26:59Z</time>
      </trkpt>
      <trkpt lat="46.6537" lon="6.07658">
        <ele>926.85</ele>
        <time>2018-03-07T09:27:06Z</time>
      </trkpt>
      <trkpt lat="46.6536" lon="6.07645">
        <ele>927.81</ele>
        <time>2018-03-07T09:27:18Z</time>
      </trkpt>
      <trkpt lat="46.65349" lon="6.07629">
        <ele>929.73</ele>
        <time>2018-03-07T09:27:33Z</time>
      </trkpt>
      <trkpt lat="46.65339" lon="6.07613">
        <ele>930.69</ele>
        <time>2018-03-07T09:27:45Z</time>
      </trkpt>
      <trkpt lat="46.65334" lon="6.07609">
        <ele>932.14</ele>
        <time>2018-03-07T09:27:58Z</time>
      </trkpt>
      <trkpt lat="46.65332" lon="6.07605">
        <ele>932.14</ele>
        <time>2018-03-07T09:28:10Z</time>
      </trkpt>
      <trkpt lat="46.65326" lon="6.07598">
        <ele>932.62</ele>
        <time>2018-03-07T09:28:25Z</time>
      </trkpt>
      <trkpt lat="46.65319" lon="6.0759">
        <ele>933.58</ele>
        <time>2018-03-07T09:28:40Z</time>
      </trkpt>
      <trkpt lat="46.65314" lon="6.07591">
        <ele>935.02</ele>
        <time>2018-03-07T09:28:49Z</time>
      </trkpt>
      <trkpt lat="46.65309" lon="6.07602">
        <ele>935.02</ele>
        <time>2018-03-07T09:29:04Z</time>
      </trkpt>
      <trkpt lat="46.65309" lon="6.07602">
        <ele>934.54</ele>
        <time>2018-03-07T09:29:05Z</time>
      </trkpt>
      <trkpt lat="46.65303" lon="6.07611">
        <ele>935.02</ele>
        <time>2018-03-07T09:29:16Z</time>
      </trkpt>
      <trkpt lat="46.65302" lon="6.07611">
        <ele>935.02</ele>
        <time>2018-03-07T09:29:17Z</time>
      </trkpt>
      <trkpt lat="46.653" lon="6.07613">
        <ele>935.5</ele>
        <time>2018-03-07T09:29:19Z</time>
      </trkpt>
      <trkpt lat="46.65296" lon="6.07619">
        <ele>935.5</ele>
        <time>2018-03-07T09:29:25Z</time>
      </trkpt>
      <trkpt lat="46.65294" lon="6.07621">
        <ele>936.46</ele>
        <time>2018-03-07T09:29:28Z</time>
      </trkpt>
      <trkpt lat="46.65288" lon="6.07628">
        <ele>936.94</ele>
        <time>2018-03-07T09:29:35Z</time>
      </trkpt>
      <trkpt lat="46.6528" lon="6.0764">
        <ele>937.9</ele>
        <time>2018-03-07T09:29:46Z</time>
      </trkpt>
      <trkpt lat="46.65277" lon="6.0764">
        <ele>937.9</ele>
        <time>2018-03-07T09:29:49Z</time>
      </trkpt>
      <trkpt lat="46.65271" lon="6.07643">
        <ele>938.38</ele>
        <time>2018-03-07T09:29:55Z</time>
      </trkpt>
      <trkpt lat="46.65267" lon="6.07647">
        <ele>938.86</ele>
        <time>2018-03-07T09:30:00Z</time>
      </trkpt>
      <trkpt lat="46.65264" lon="6.07657">
        <ele>939.83</ele>
        <time>2018-03-07T09:30:15Z</time>
      </trkpt>
      <trkpt lat="46.65265" lon="6.07666">
        <ele>941.75</ele>
        <time>2018-03-07T09:30:28Z</time>
      </trkpt>
      <trkpt lat="46.65266" lon="6.07673">
        <ele>943.67</ele>
        <time>2018-03-07T09:30:39Z</time>
      </trkpt>
      <trkpt lat="46.65261" lon="6.07686">
        <ele>946.07</ele>
        <time>2018-03-07T09:30:50Z</time>
      </trkpt>
      <trkpt lat="46.6525" lon="6.07701">
        <ele>947.52</ele>
        <time>2018-03-07T09:31:01Z</time>
      </trkpt>
      <trkpt lat="46.65238" lon="6.07714">
        <ele>949.44</ele>
        <time>2018-03-07T09:31:13Z</time>
      </trkpt>
      <trkpt lat="46.6523" lon="6.0772">
        <ele>951.36</ele>
        <time>2018-03-07T09:31:24Z</time>
      </trkpt>
      <trkpt lat="46.6522" lon="6.07729">
        <ele>952.32</ele>
        <time>2018-03-07T09:31:36Z</time>
      </trkpt>
      <trkpt lat="46.65211" lon="6.07737">
        <ele>953.77</ele>
        <time>2018-03-07T09:31:47Z</time>
      </trkpt>
      <trkpt lat="46.65208" lon="6.0774">
        <ele>954.73</ele>
        <time>2018-03-07T09:31:52Z</time>
      </trkpt>
      <trkpt lat="46.65197" lon="6.0775">
        <ele>955.21</ele>
        <time>2018-03-07T09:32:05Z</time>
      </trkpt>
      <trkpt lat="46.65191" lon="6.07755">
        <ele>958.57</ele>
        <time>2018-03-07T09:32:17Z</time>
      </trkpt>
      <trkpt lat="46.65184" lon="6.0776">
        <ele>959.53</ele>
        <time>2018-03-07T09:32:24Z</time>
      </trkpt>
      <trkpt lat="46.65178" lon="6.07768">
        <ele>960.98</ele>
        <time>2018-03-07T09:32:37Z</time>
      </trkpt>
      <trkpt lat="46.65171" lon="6.07771">
        <ele>961.94</ele>
        <time>2018-03-07T09:32:48Z</time>
      </trkpt>
      <trkpt lat="46.65164" lon="6.07779">
        <ele>964.82</ele>
        <time>2018-03-07T09:33:02Z</time>
      </trkpt>
      <trkpt lat="46.65162" lon="6.07789">
        <ele>966.74</ele>
        <time>2018-03-07T09:33:15Z</time>
      </trkpt>
      <trkpt lat="46.65162" lon="6.07805">
        <ele>969.15</ele>
        <time>2018-03-07T09:33:30Z</time>
      </trkpt>
      <trkpt lat="46.65161" lon="6.07818">
        <ele>970.11</ele>
        <time>2018-03-07T09:33:37Z</time>
      </trkpt>
      <trkpt lat="46.65163" lon="6.07831">
        <ele>971.55</ele>
        <time>2018-03-07T09:33:48Z</time>
      </trkpt>
      <trkpt lat="46.65165" lon="6.07841">
        <ele>972.99</ele>
        <time>2018-03-07T09:34:00Z</time>
      </trkpt>
      <trkpt lat="46.65161" lon="6.07849">
        <ele>973.95</ele>
        <time>2018-03-07T09:34:09Z</time>
      </trkpt>
      <trkpt lat="46.65155" lon="6.07869">
        <ele>974.91</ele>
        <time>2018-03-07T09:34:19Z</time>
      </trkpt>
      <trkpt lat="46.65154" lon="6.0787">
        <ele>975.39</ele>
        <time>2018-03-07T09:34:23Z</time>
      </trkpt>
      <trkpt lat="46.65149" lon="6.07875">
        <ele>976.84</ele>
        <time>2018-03-07T09:34:35Z</time>
      </trkpt>
      <trkpt lat="46.65142" lon="6.07888">
        <ele>978.28</ele>
        <time>2018-03-07T09:34:44Z</time>
      </trkpt>
      <trkpt lat="46.65136" lon="6.07897">
        <ele>978.76</ele>
        <time>2018-03-07T09:34:55Z</time>
      </trkpt>
      <trkpt lat="46.65127" lon="6.07911">
        <ele>980.2</ele>
        <time>2018-03-07T09:35:06Z</time>
      </trkpt>
      <trkpt lat="46.65117" lon="6.07923">
        <ele>982.12</ele>
        <time>2018-03-07T09:35:18Z</time>
      </trkpt>
      <trkpt lat="46.65116" lon="6.07926">
        <ele>981.16</ele>
        <time>2018-03-07T09:35:21Z</time>
      </trkpt>
      <trkpt lat="46.65107" lon="6.07936">
        <ele>983.09</ele>
        <time>2018-03-07T09:35:33Z</time>
      </trkpt>
      <trkpt lat="46.65099" lon="6.07944">
        <ele>985.01</ele>
        <time>2018-03-07T09:35:43Z</time>
      </trkpt>
      <trkpt lat="46.65092" lon="6.07949">
        <ele>985.49</ele>
        <time>2018-03-07T09:35:53Z</time>
      </trkpt>
      <trkpt lat="46.65086" lon="6.07955">
        <ele>985.97</ele>
        <time>2018-03-07T09:36:04Z</time>
      </trkpt>
      <trkpt lat="46.65084" lon="6.07956">
        <ele>986.45</ele>
        <time>2018-03-07T09:36:17Z</time>
      </trkpt>
      <trkpt lat="46.65078" lon="6.07961">
        <ele>986.45</ele>
        <time>2018-03-07T09:36:23Z</time>
      </trkpt>
      <trkpt lat="46.65074" lon="6.07966">
        <ele>986.93</ele>
        <time>2018-03-07T09:36:27Z</time>
      </trkpt>
      <trkpt lat="46.65063" lon="6.07976">
        <ele>986.93</ele>
        <time>2018-03-07T09:36:38Z</time>
      </trkpt>
      <trkpt lat="46.65062" lon="6.07978">
        <ele>986.93</ele>
        <time>2018-03-07T09:36:40Z</time>
      </trkpt>
      <trkpt lat="46.6506" lon="6.0798">
        <ele>986.93</ele>
        <time>2018-03-07T09:36:42Z</time>
      </trkpt>
      <trkpt lat="46.65056" lon="6.07986">
        <ele>986.93</ele>
        <time>2018-03-07T09:36:46Z</time>
      </trkpt>
      <trkpt lat="46.65052" lon="6.07991">
        <ele>987.41</ele>
        <time>2018-03-07T09:36:57Z</time>
      </trkpt>
      <trkpt lat="46.65048" lon="6.07996">
        <ele>986.45</ele>
        <time>2018-03-07T09:37:13Z</time>
      </trkpt>
      <trkpt lat="46.65049" lon="6.07995">
        <ele>986.45</ele>
        <time>2018-03-07T09:37:35Z</time>
      </trkpt>
      <trkpt lat="46.65048" lon="6.07996">
        <ele>986.93</ele>
        <time>2018-03-07T09:37:50Z</time>
      </trkpt>
      <trkpt lat="46.65044" lon="6.07995">
        <ele>985.97</ele>
        <time>2018-03-07T09:38:15Z</time>
      </trkpt>
      <trkpt lat="46.6503" lon="6.07976">
        <ele>985.01</ele>
        <time>2018-03-07T09:38:30Z</time>
      </trkpt>
      <trkpt lat="46.65022" lon="6.07971">
        <ele>984.05</ele>
        <time>2018-03-07T09:38:39Z</time>
      </trkpt>
      <trkpt lat="46.6501" lon="6.07971">
        <ele>985.49</ele>
        <time>2018-03-07T09:38:50Z</time>
      </trkpt>
      <trkpt lat="46.65008" lon="6.0797">
        <ele>985.49</ele>
        <time>2018-03-07T09:38:52Z</time>
      </trkpt>
      <trkpt lat="46.64997" lon="6.0795">
        <ele>985.97</ele>
        <time>2018-03-07T09:39:08Z</time>
      </trkpt>
      <trkpt lat="46.64991" lon="6.07935">
        <ele>986.93</ele>
        <time>2018-03-07T09:39:23Z</time>
      </trkpt>
      <trkpt lat="46.6499" lon="6.07934">
        <ele>986.93</ele>
        <time>2018-03-07T09:39:54Z</time>
      </trkpt>
      <trkpt lat="46.64989" lon="6.0792">
        <ele>986.45</ele>
        <time>2018-03-07T09:40:10Z</time>
      </trkpt>
      <trkpt lat="46.64987" lon="6.07898">
        <ele>987.41</ele>
        <time>2018-03-07T09:40:23Z</time>
      </trkpt>
      <trkpt lat="46.64981" lon="6.07873">
        <ele>987.41</ele>
        <time>2018-03-07T09:40:36Z</time>
      </trkpt>
      <trkpt lat="46.64981" lon="6.07871">
        <ele>987.41</ele>
        <time>2018-03-07T09:40:37Z</time>
      </trkpt>
      <trkpt lat="46.64972" lon="6.07848">
        <ele>987.89</ele>
        <time>2018-03-07T09:40:53Z</time>
      </trkpt>
      <trkpt lat="46.64967" lon="6.07832">
        <ele>986.45</ele>
        <time>2018-03-07T09:41:04Z</time>
      </trkpt>
      <trkpt lat="46.64965" lon="6.07826">
        <ele>985.97</ele>
        <time>2018-03-07T09:41:08Z</time>
      </trkpt>
      <trkpt lat="46.64961" lon="6.07823">
        <ele>987.89</ele>
        <time>2018-03-07T09:41:11Z</time>
      </trkpt>
      <trkpt lat="46.64957" lon="6.07815">
        <ele>986.93</ele>
        <time>2018-03-07T09:41:14Z</time>
      </trkpt>
      <trkpt lat="46.64948" lon="6.0779">
        <ele>987.41</ele>
        <time>2018-03-07T09:41:25Z</time>
      </trkpt>
      <trkpt lat="46.64945" lon="6.07779">
        <ele>987.41</ele>
        <time>2018-03-07T09:41:31Z</time>
      </trkpt>
      <trkpt lat="46.64944" lon="6.07772">
        <ele>987.41</ele>
        <time>2018-03-07T09:41:35Z</time>
      </trkpt>
      <trkpt lat="46.64941" lon="6.07755">
        <ele>986.45</ele>
        <time>2018-03-07T09:41:46Z</time>
      </trkpt>
      <trkpt lat="46.64936" lon="6.07742">
        <ele>986.93</ele>
        <time>2018-03-07T09:41:54Z</time>
      </trkpt>
      <trkpt lat="46.64933" lon="6.07733">
        <ele>986.93</ele>
        <time>2018-03-07T09:42:00Z</time>
      </trkpt>
      <trkpt lat="46.64926" lon="6.07716">
        <ele>985.49</ele>
        <time>2018-03-07T09:42:11Z</time>
      </trkpt>
      <trkpt lat="46.64921" lon="6.077">
        <ele>985.49</ele>
        <time>2018-03-07T09:42:24Z</time>
      </trkpt>
      <trkpt lat="46.64915" lon="6.07678">
        <ele>985.49</ele>
        <time>2018-03-07T09:42:36Z</time>
      </trkpt>
      <trkpt lat="46.64911" lon="6.07668">
        <ele>984.53</ele>
        <time>2018-03-07T09:42:42Z</time>
      </trkpt>
      <trkpt lat="46.64897" lon="6.07646">
        <ele>985.97</ele>
        <time>2018-03-07T09:42:55Z</time>
      </trkpt>
      <trkpt lat="46.64891" lon="6.07637">
        <ele>985.97</ele>
        <time>2018-03-07T09:43:02Z</time>
      </trkpt>
      <trkpt lat="46.64881" lon="6.07612">
        <ele>986.93</ele>
        <time>2018-03-07T09:43:17Z</time>
      </trkpt>
      <trkpt lat="46.64877" lon="6.07601">
        <ele>986.45</ele>
        <time>2018-03-07T09:43:24Z</time>
      </trkpt>
      <trkpt lat="46.64868" lon="6.07576">
        <ele>987.89</ele>
        <time>2018-03-07T09:43:39Z</time>
      </trkpt>
      <trkpt lat="46.64858" lon="6.07552">
        <ele>988.37</ele>
        <time>2018-03-07T09:43:54Z</time>
      </trkpt>
      <trkpt lat="46.64847" lon="6.07528">
        <ele>988.85</ele>
        <time>2018-03-07T09:44:09Z</time>
      </trkpt>
      <trkpt lat="46.64839" lon="6.07507">
        <ele>989.81</ele>
        <time>2018-03-07T09:44:24Z</time>
      </trkpt>
      <trkpt lat="46.64831" lon="6.07489">
        <ele>989.81</ele>
        <time>2018-03-07T09:44:38Z</time>
      </trkpt>
      <trkpt lat="46.64825" lon="6.07476">
        <ele>990.3</ele>
        <time>2018-03-07T09:44:47Z</time>
      </trkpt>
      <trkpt lat="46.6482" lon="6.07464">
        <ele>991.74</ele>
        <time>2018-03-07T09:44:55Z</time>
      </trkpt>
      <trkpt lat="46.6482" lon="6.07448">
        <ele>993.18</ele>
        <time>2018-03-07T09:45:12Z</time>
      </trkpt>
      <trkpt lat="46.6482" lon="6.07448">
        <ele>993.18</ele>
        <time>2018-03-07T09:45:22Z</time>
      </trkpt>
      <trkpt lat="46.6482" lon="6.07427">
        <ele>993.18</ele>
        <time>2018-03-07T09:45:36Z</time>
      </trkpt>
      <trkpt lat="46.6482" lon="6.0742">
        <ele>993.18</ele>
        <time>2018-03-07T09:45:40Z</time>
      </trkpt>
      <trkpt lat="46.64815" lon="6.074">
        <ele>993.66</ele>
        <time>2018-03-07T09:45:52Z</time>
      </trkpt>
      <trkpt lat="46.64806" lon="6.07372">
        <ele>995.1</ele>
        <time>2018-03-07T09:46:07Z</time>
      </trkpt>
      <trkpt lat="46.64805" lon="6.07367">
        <ele>995.58</ele>
        <time>2018-03-07T09:46:10Z</time>
      </trkpt>
      <trkpt lat="46.64798" lon="6.07347">
        <ele>997.51</ele>
        <time>2018-03-07T09:46:22Z</time>
      </trkpt>
      <trkpt lat="46.64794" lon="6.07338">
        <ele>997.02</ele>
        <time>2018-03-07T09:46:28Z</time>
      </trkpt>
      <trkpt lat="46.64784" lon="6.07316">
        <ele>996.54</ele>
        <time>2018-03-07T09:46:43Z</time>
      </trkpt>
      <trkpt lat="46.64778" lon="6.07302">
        <ele>996.54</ele>
        <time>2018-03-07T09:46:54Z</time>
      </trkpt>
      <trkpt lat="46.64776" lon="6.07285">
        <ele>996.06</ele>
        <time>2018-03-07T09:47:06Z</time>
      </trkpt>
      <trkpt lat="46.64773" lon="6.07277">
        <ele>994.14</ele>
        <time>2018-03-07T09:47:11Z</time>
      </trkpt>
      <trkpt lat="46.64761" lon="6.07243">
        <ele>993.18</ele>
        <time>2018-03-07T09:47:25Z</time>
      </trkpt>
      <trkpt lat="46.6475" lon="6.07216">
        <ele>992.22</ele>
        <time>2018-03-07T09:47:39Z</time>
      </trkpt>
      <trkpt lat="46.64742" lon="6.07202">
        <ele>992.7</ele>
        <time>2018-03-07T09:47:51Z</time>
      </trkpt>
      <trkpt lat="46.64733" lon="6.07182">
        <ele>991.74</ele>
        <time>2018-03-07T09:48:02Z</time>
      </trkpt>
      <trkpt lat="46.64722" lon="6.07159">
        <ele>993.18</ele>
        <time>2018-03-07T09:48:17Z</time>
      </trkpt>
      <trkpt lat="46.64715" lon="6.07146">
        <ele>994.14</ele>
        <time>2018-03-07T09:48:25Z</time>
      </trkpt>
      <trkpt lat="46.64713" lon="6.07138">
        <ele>994.14</ele>
        <time>2018-03-07T09:48:29Z</time>
      </trkpt>
      <trkpt lat="46.64702" lon="6.07112">
        <ele>994.62</ele>
        <time>2018-03-07T09:48:43Z</time>
      </trkpt>
      <trkpt lat="46.64694" lon="6.07091">
        <ele>994.62</ele>
        <time>2018-03-07T09:48:56Z</time>
      </trkpt>
      <trkpt lat="46.64689" lon="6.07078">
        <ele>996.06</ele>
        <time>2018-03-07T09:49:05Z</time>
      </trkpt>
      <trkpt lat="46.64685" lon="6.07069">
        <ele>996.54</ele>
        <time>2018-03-07T09:49:11Z</time>
      </trkpt>
      <trkpt lat="46.6468" lon="6.07049">
        <ele>997.02</ele>
        <time>2018-03-07T09:49:24Z</time>
      </trkpt>
      <trkpt lat="46.64672" lon="6.07027">
        <ele>996.06</ele>
        <time>2018-03-07T09:49:36Z</time>
      </trkpt>
      <trkpt lat="46.64658" lon="6.07003">
        <ele>996.06</ele>
        <time>2018-03-07T09:49:50Z</time>
      </trkpt>
      <trkpt lat="46.64639" lon="6.0699">
        <ele>996.06</ele>
        <time>2018-03-07T09:50:06Z</time>
      </trkpt>
      <trkpt lat="46.64636" lon="6.06989">
        <ele>998.47</ele>
        <time>2018-03-07T09:50:08Z</time>
      </trkpt>
      <trkpt lat="46.64633" lon="6.06989">
        <ele>997.02</ele>
        <time>2018-03-07T09:50:10Z</time>
      </trkpt>
      <trkpt lat="46.64615" lon="6.06979">
        <ele>996.54</ele>
        <time>2018-03-07T09:50:25Z</time>
      </trkpt>
      <trkpt lat="46.64603" lon="6.06967">
        <ele>996.54</ele>
        <time>2018-03-07T09:50:37Z</time>
      </trkpt>
      <trkpt lat="46.64587" lon="6.06954">
        <ele>995.1</ele>
        <time>2018-03-07T09:50:52Z</time>
      </trkpt>
      <trkpt lat="46.64574" lon="6.06929">
        <ele>995.58</ele>
        <time>2018-03-07T09:51:07Z</time>
      </trkpt>
      <trkpt lat="46.64572" lon="6.06923">
        <ele>995.1</ele>
        <time>2018-03-07T09:51:11Z</time>
      </trkpt>
      <trkpt lat="46.64559" lon="6.06911">
        <ele>995.58</ele>
        <time>2018-03-07T09:51:22Z</time>
      </trkpt>
      <trkpt lat="46.64555" lon="6.06908">
        <ele>995.58</ele>
        <time>2018-03-07T09:51:26Z</time>
      </trkpt>
      <trkpt lat="46.64551" lon="6.06903">
        <ele>996.54</ele>
        <time>2018-03-07T09:51:30Z</time>
      </trkpt>
      <trkpt lat="46.64546" lon="6.06893">
        <ele>999.43</ele>
        <time>2018-03-07T09:51:37Z</time>
      </trkpt>
      <trkpt lat="46.64546" lon="6.06892">
        <ele>998.95</ele>
        <time>2018-03-07T09:51:38Z</time>
      </trkpt>
      <trkpt lat="46.6454" lon="6.06869">
        <ele>998.95</ele>
        <time>2018-03-07T09:51:52Z</time>
      </trkpt>
      <trkpt lat="46.64539" lon="6.0686">
        <ele>999.43</ele>
        <time>2018-03-07T09:51:59Z</time>
      </trkpt>
      <trkpt lat="46.64538" lon="6.06851">
        <ele>997.02</ele>
        <time>2018-03-07T09:52:04Z</time>
      </trkpt>
      <trkpt lat="46.64536" lon="6.06841">
        <ele>998.95</ele>
        <time>2018-03-07T09:52:10Z</time>
      </trkpt>
      <trkpt lat="46.64536" lon="6.06832">
        <ele>998.47</ele>
        <time>2018-03-07T09:52:23Z</time>
      </trkpt>
      <trkpt lat="46.64536" lon="6.06832">
        <ele>998.95</ele>
        <time>2018-03-07T09:52:44Z</time>
      </trkpt>
      <trkpt lat="46.64538" lon="6.06832">
        <ele>998.47</ele>
        <time>2018-03-07T09:53:05Z</time>
      </trkpt>
      <trkpt lat="46.64538" lon="6.06831">
        <ele>998.95</ele>
        <time>2018-03-07T09:53:16Z</time>
      </trkpt>
      <trkpt lat="46.64536" lon="6.06829">
        <ele>996.06</ele>
        <time>2018-03-07T09:53:18Z</time>
      </trkpt>
      <trkpt lat="46.64529" lon="6.06815">
        <ele>995.58</ele>
        <time>2018-03-07T09:53:28Z</time>
      </trkpt>
      <trkpt lat="46.64524" lon="6.06807">
        <ele>995.1</ele>
        <time>2018-03-07T09:53:34Z</time>
      </trkpt>
      <trkpt lat="46.6452" lon="6.06799">
        <ele>994.62</ele>
        <time>2018-03-07T09:53:40Z</time>
      </trkpt>
      <trkpt lat="46.64508" lon="6.06782">
        <ele>993.18</ele>
        <time>2018-03-07T09:53:53Z</time>
      </trkpt>
      <trkpt lat="46.64494" lon="6.06757">
        <ele>991.74</ele>
        <time>2018-03-07T09:54:10Z</time>
      </trkpt>
      <trkpt lat="46.64481" lon="6.06745">
        <ele>990.3</ele>
        <time>2018-03-07T09:54:22Z</time>
      </trkpt>
      <trkpt lat="46.64477" lon="6.0674">
        <ele>988.85</ele>
        <time>2018-03-07T09:54:26Z</time>
      </trkpt>
      <trkpt lat="46.64464" lon="6.06721">
        <ele>988.85</ele>
        <time>2018-03-07T09:54:38Z</time>
      </trkpt>
      <trkpt lat="46.64463" lon="6.06719">
        <ele>988.37</ele>
        <time>2018-03-07T09:54:40Z</time>
      </trkpt>
      <trkpt lat="46.64459" lon="6.06708">
        <ele>987.89</ele>
        <time>2018-03-07T09:54:46Z</time>
      </trkpt>
      <trkpt lat="46.64449" lon="6.06688">
        <ele>988.37</ele>
        <time>2018-03-07T09:54:58Z</time>
      </trkpt>
      <trkpt lat="46.64441" lon="6.06668">
        <ele>988.37</ele>
        <time>2018-03-07T09:55:10Z</time>
      </trkpt>
      <trkpt lat="46.6444" lon="6.06663">
        <ele>988.85</ele>
        <time>2018-03-07T09:55:13Z</time>
      </trkpt>
      <trkpt lat="46.64431" lon="6.06641">
        <ele>987.41</ele>
        <time>2018-03-07T09:55:25Z</time>
      </trkpt>
      <trkpt lat="46.64424" lon="6.06625">
        <ele>989.81</ele>
        <time>2018-03-07T09:55:33Z</time>
      </trkpt>
      <trkpt lat="46.64416" lon="6.06607">
        <ele>988.85</ele>
        <time>2018-03-07T09:55:43Z</time>
      </trkpt>
      <trkpt lat="46.64408" lon="6.06593">
        <ele>988.85</ele>
        <time>2018-03-07T09:55:57Z</time>
      </trkpt>
      <trkpt lat="46.644" lon="6.06574">
        <ele>988.85</ele>
        <time>2018-03-07T09:56:09Z</time>
      </trkpt>
      <trkpt lat="46.64393" lon="6.06554">
        <ele>989.81</ele>
        <time>2018-03-07T09:56:19Z</time>
      </trkpt>
      <trkpt lat="46.64391" lon="6.06549">
        <ele>989.81</ele>
        <time>2018-03-07T09:56:22Z</time>
      </trkpt>
      <trkpt lat="46.64392" lon="6.06545">
        <ele>990.3</ele>
        <time>2018-03-07T09:56:24Z</time>
      </trkpt>
      <trkpt lat="46.64389" lon="6.06537">
        <ele>991.26</ele>
        <time>2018-03-07T09:56:30Z</time>
      </trkpt>
      <trkpt lat="46.64386" lon="6.06519">
        <ele>992.22</ele>
        <time>2018-03-07T09:56:41Z</time>
      </trkpt>
      <trkpt lat="46.64378" lon="6.06493">
        <ele>993.66</ele>
        <time>2018-03-07T09:56:54Z</time>
      </trkpt>
      <trkpt lat="46.64376" lon="6.06488">
        <ele>994.14</ele>
        <time>2018-03-07T09:56:56Z</time>
      </trkpt>
      <trkpt lat="46.64373" lon="6.06473">
        <ele>995.1</ele>
        <time>2018-03-07T09:57:07Z</time>
      </trkpt>
      <trkpt lat="46.64368" lon="6.06453">
        <ele>995.1</ele>
        <time>2018-03-07T09:57:18Z</time>
      </trkpt>
      <trkpt lat="46.64364" lon="6.06441">
        <ele>996.06</ele>
        <time>2018-03-07T09:57:29Z</time>
      </trkpt>
      <trkpt lat="46.64359" lon="6.06422">
        <ele>996.06</ele>
        <time>2018-03-07T09:57:41Z</time>
      </trkpt>
      <trkpt lat="46.64352" lon="6.06396">
        <ele>997.51</ele>
        <time>2018-03-07T09:57:56Z</time>
      </trkpt>
      <trkpt lat="46.6435" lon="6.0638">
        <ele>998.95</ele>
        <time>2018-03-07T09:58:08Z</time>
      </trkpt>
      <trkpt lat="46.64349" lon="6.06361">
        <ele>999.43</ele>
        <time>2018-03-07T09:58:18Z</time>
      </trkpt>
      <trkpt lat="46.64342" lon="6.06337">
        <ele>999.43</ele>
        <time>2018-03-07T09:58:30Z</time>
      </trkpt>
      <trkpt lat="46.64338" lon="6.06326">
        <ele>999.91</ele>
        <time>2018-03-07T09:58:41Z</time>
      </trkpt>
      <trkpt lat="46.64335" lon="6.0632">
        <ele>999.43</ele>
        <time>2018-03-07T09:58:50Z</time>
      </trkpt>
      <trkpt lat="46.64331" lon="6.06316">
        <ele>1001.35</ele>
        <time>2018-03-07T09:58:55Z</time>
      </trkpt>
      <trkpt lat="46.64329" lon="6.06315">
        <ele>999.91</ele>
        <time>2018-03-07T09:58:58Z</time>
      </trkpt>
      <trkpt lat="46.6432" lon="6.06295">
        <ele>1000.39</ele>
        <time>2018-03-07T09:59:10Z</time>
      </trkpt>
      <trkpt lat="46.64319" lon="6.06284">
        <ele>1001.35</ele>
        <time>2018-03-07T09:59:21Z</time>
      </trkpt>
      <trkpt lat="46.64317" lon="6.06279">
        <ele>999.91</ele>
        <time>2018-03-07T09:59:24Z</time>
      </trkpt>
      <trkpt lat="46.64313" lon="6.06262">
        <ele>1000.39</ele>
        <time>2018-03-07T09:59:35Z</time>
      </trkpt>
      <trkpt lat="46.64313" lon="6.0624">
        <ele>999.91</ele>
        <time>2018-03-07T09:59:46Z</time>
      </trkpt>
      <trkpt lat="46.64312" lon="6.06237">
        <ele>1000.39</ele>
        <time>2018-03-07T09:59:48Z</time>
      </trkpt>
      <trkpt lat="46.64305" lon="6.06206">
        <ele>998.95</ele>
        <time>2018-03-07T10:00:02Z</time>
      </trkpt>
      <trkpt lat="46.64295" lon="6.06179">
        <ele>997.51</ele>
        <time>2018-03-07T10:00:16Z</time>
      </trkpt>
      <trkpt lat="46.64285" lon="6.06159">
        <ele>996.06</ele>
        <time>2018-03-07T10:00:30Z</time>
      </trkpt>
      <trkpt lat="46.64279" lon="6.06149">
        <ele>995.1</ele>
        <time>2018-03-07T10:00:36Z</time>
      </trkpt>
      <trkpt lat="46.6428" lon="6.06136">
        <ele>994.14</ele>
        <time>2018-03-07T10:00:50Z</time>
      </trkpt>
      <trkpt lat="46.6428" lon="6.06132">
        <ele>994.14</ele>
        <time>2018-03-07T10:00:53Z</time>
      </trkpt>
      <trkpt lat="46.64279" lon="6.06126">
        <ele>993.66</ele>
        <time>2018-03-07T10:00:56Z</time>
      </trkpt>
      <trkpt lat="46.64276" lon="6.06113">
        <ele>992.22</ele>
        <time>2018-03-07T10:01:03Z</time>
      </trkpt>
      <trkpt lat="46.64267" lon="6.06083">
        <ele>991.26</ele>
        <time>2018-03-07T10:01:15Z</time>
      </trkpt>
      <trkpt lat="46.64256" lon="6.0605">
        <ele>990.3</ele>
        <time>2018-03-07T10:01:28Z</time>
      </trkpt>
      <trkpt lat="46.64254" lon="6.06043">
        <ele>988.85</ele>
        <time>2018-03-07T10:01:34Z</time>
      </trkpt>
      <trkpt lat="46.64244" lon="6.06023">
        <ele>987.89</ele>
        <time>2018-03-07T10:01:46Z</time>
      </trkpt>
      <trkpt lat="46.64237" lon="6.06007">
        <ele>987.41</ele>
        <time>2018-03-07T10:01:58Z</time>
      </trkpt>
      <trkpt lat="46.64238" lon="6.05995">
        <ele>986.93</ele>
        <time>2018-03-07T10:02:11Z</time>
      </trkpt>
      <trkpt lat="46.6423" lon="6.05988">
        <ele>985.97</ele>
        <time>2018-03-07T10:02:21Z</time>
      </trkpt>
      <trkpt lat="46.64225" lon="6.05976">
        <ele>985.49</ele>
        <time>2018-03-07T10:02:32Z</time>
      </trkpt>
      <trkpt lat="46.6422" lon="6.0597">
        <ele>985.49</ele>
        <time>2018-03-07T10:02:41Z</time>
      </trkpt>
      <trkpt lat="46.64218" lon="6.05969">
        <ele>985.49</ele>
        <time>2018-03-07T10:02:43Z</time>
      </trkpt>
      <trkpt lat="46.64211" lon="6.05962">
        <ele>985.01</ele>
        <time>2018-03-07T10:02:53Z</time>
      </trkpt>
      <trkpt lat="46.64202" lon="6.0595">
        <ele>984.05</ele>
        <time>2018-03-07T10:03:05Z</time>
      </trkpt>
      <trkpt lat="46.64196" lon="6.05945">
        <ele>984.05</ele>
        <time>2018-03-07T10:03:11Z</time>
      </trkpt>
      <trkpt lat="46.64179" lon="6.05907">
        <ele>983.09</ele>
        <time>2018-03-07T10:03:24Z</time>
      </trkpt>
      <trkpt lat="46.64171" lon="6.05894">
        <ele>983.57</ele>
        <time>2018-03-07T10:03:38Z</time>
      </trkpt>
      <trkpt lat="46.64166" lon="6.05898">
        <ele>982.6</ele>
        <time>2018-03-07T10:04:03Z</time>
      </trkpt>
      <trkpt lat="46.64166" lon="6.05892">
        <ele>982.6</ele>
        <time>2018-03-07T10:04:22Z</time>
      </trkpt>
      <trkpt lat="46.64165" lon="6.05887">
        <ele>982.6</ele>
        <time>2018-03-07T10:04:50Z</time>
      </trkpt>
      <trkpt lat="46.64161" lon="6.0587">
        <ele>982.12</ele>
        <time>2018-03-07T10:05:02Z</time>
      </trkpt>
      <trkpt lat="46.6416" lon="6.05863">
        <ele>982.12</ele>
        <time>2018-03-07T10:05:05Z</time>
      </trkpt>
      <trkpt lat="46.64145" lon="6.05825">
        <ele>981.16</ele>
        <time>2018-03-07T10:05:22Z</time>
      </trkpt>
      <trkpt lat="46.64141" lon="6.05805">
        <ele>980.68</ele>
        <time>2018-03-07T10:05:33Z</time>
      </trkpt>
      <trkpt lat="46.64141" lon="6.05804">
        <ele>980.68</ele>
        <time>2018-03-07T10:05:35Z</time>
      </trkpt>
      <trkpt lat="46.64136" lon="6.05777">
        <ele>980.2</ele>
        <time>2018-03-07T10:05:48Z</time>
      </trkpt>
      <trkpt lat="46.64126" lon="6.05754">
        <ele>978.28</ele>
        <time>2018-03-07T10:06:00Z</time>
      </trkpt>
      <trkpt lat="46.64121" lon="6.05736">
        <ele>977.8</ele>
        <time>2018-03-07T10:06:11Z</time>
      </trkpt>
      <trkpt lat="46.64117" lon="6.05722">
        <ele>977.32</ele>
        <time>2018-03-07T10:06:22Z</time>
      </trkpt>
      <trkpt lat="46.64113" lon="6.05704">
        <ele>976.36</ele>
        <time>2018-03-07T10:06:32Z</time>
      </trkpt>
      <trkpt lat="46.64107" lon="6.05687">
        <ele>975.88</ele>
        <time>2018-03-07T10:06:45Z</time>
      </trkpt>
      <trkpt lat="46.64103" lon="6.05676">
        <ele>974.91</ele>
        <time>2018-03-07T10:06:54Z</time>
      </trkpt>
      <trkpt lat="46.64099" lon="6.05665">
        <ele>973.47</ele>
        <time>2018-03-07T10:07:06Z</time>
      </trkpt>
      <trkpt lat="46.64093" lon="6.05648">
        <ele>972.51</ele>
        <time>2018-03-07T10:07:16Z</time>
      </trkpt>
      <trkpt lat="46.64084" lon="6.05626">
        <ele>972.51</ele>
        <time>2018-03-07T10:07:24Z</time>
      </trkpt>
      <trkpt lat="46.64083" lon="6.05625">
        <ele>972.03</ele>
        <time>2018-03-07T10:07:27Z</time>
      </trkpt>
      <trkpt lat="46.64073" lon="6.05595">
        <ele>972.03</ele>
        <time>2018-03-07T10:07:40Z</time>
      </trkpt>
      <trkpt lat="46.64067" lon="6.05573">
        <ele>972.03</ele>
        <time>2018-03-07T10:07:47Z</time>
      </trkpt>
      <trkpt lat="46.6406" lon="6.05556">
        <ele>971.55</ele>
        <time>2018-03-07T10:07:56Z</time>
      </trkpt>
      <trkpt lat="46.64055" lon="6.05541">
        <ele>970.59</ele>
        <time>2018-03-07T10:08:07Z</time>
      </trkpt>
      <trkpt lat="46.64051" lon="6.05532">
        <ele>970.11</ele>
        <time>2018-03-07T10:08:13Z</time>
      </trkpt>
      <trkpt lat="46.64042" lon="6.05515">
        <ele>969.15</ele>
        <time>2018-03-07T10:08:25Z</time>
      </trkpt>
      <trkpt lat="46.64035" lon="6.055">
        <ele>968.18</ele>
        <time>2018-03-07T10:08:33Z</time>
      </trkpt>
      <trkpt lat="46.64027" lon="6.05478">
        <ele>966.74</ele>
        <time>2018-03-07T10:08:46Z</time>
      </trkpt>
      <trkpt lat="46.64017" lon="6.05467">
        <ele>964.82</ele>
        <time>2018-03-07T10:08:56Z</time>
      </trkpt>
      <trkpt lat="46.64008" lon="6.05448">
        <ele>963.86</ele>
        <time>2018-03-07T10:09:05Z</time>
      </trkpt>
      <trkpt lat="46.64007" lon="6.05445">
        <ele>963.86</ele>
        <time>2018-03-07T10:09:07Z</time>
      </trkpt>
      <trkpt lat="46.63997" lon="6.0543">
        <ele>962.42</ele>
        <time>2018-03-07T10:09:18Z</time>
      </trkpt>
      <trkpt lat="46.63995" lon="6.05427">
        <ele>962.42</ele>
        <time>2018-03-07T10:09:20Z</time>
      </trkpt>
      <trkpt lat="46.63982" lon="6.05407">
        <ele>960.98</ele>
        <time>2018-03-07T10:09:33Z</time>
      </trkpt>
      <trkpt lat="46.63977" lon="6.05388">
        <ele>959.53</ele>
        <time>2018-03-07T10:09:43Z</time>
      </trkpt>
      <trkpt lat="46.63966" lon="6.05368">
        <ele>957.13</ele>
        <time>2018-03-07T10:09:56Z</time>
      </trkpt>
      <trkpt lat="46.6396" lon="6.05365">
        <ele>957.61</ele>
        <time>2018-03-07T10:10:08Z</time>
      </trkpt>
      <trkpt lat="46.63959" lon="6.05362">
        <ele>958.09</ele>
        <time>2018-03-07T10:10:30Z</time>
      </trkpt>
      <trkpt lat="46.63959" lon="6.0536">
        <ele>957.13</ele>
        <time>2018-03-07T10:10:59Z</time>
      </trkpt>
      <trkpt lat="46.63962" lon="6.05341">
        <ele>956.65</ele>
        <time>2018-03-07T10:11:11Z</time>
      </trkpt>
      <trkpt lat="46.63962" lon="6.05323">
        <ele>956.65</ele>
        <time>2018-03-07T10:11:22Z</time>
      </trkpt>
      <trkpt lat="46.63961" lon="6.05296">
        <ele>955.69</ele>
        <time>2018-03-07T10:11:33Z</time>
      </trkpt>
      <trkpt lat="46.63958" lon="6.05273">
        <ele>953.28</ele>
        <time>2018-03-07T10:11:43Z</time>
      </trkpt>
      <trkpt lat="46.63955" lon="6.05249">
        <ele>950.88</ele>
        <time>2018-03-07T10:11:56Z</time>
      </trkpt>
      <trkpt lat="46.63957" lon="6.05245">
        <ele>950.4</ele>
        <time>2018-03-07T10:11:58Z</time>
      </trkpt>
      <trkpt lat="46.63967" lon="6.05226">
        <ele>949.92</ele>
        <time>2018-03-07T10:12:11Z</time>
      </trkpt>
      <trkpt lat="46.63968" lon="6.05225">
        <ele>948.96</ele>
        <time>2018-03-07T10:12:12Z</time>
      </trkpt>
      <trkpt lat="46.63972" lon="6.05217">
        <ele>948.48</ele>
        <time>2018-03-07T10:12:16Z</time>
      </trkpt>
      <trkpt lat="46.63985" lon="6.052">
        <ele>946.56</ele>
        <time>2018-03-07T10:12:29Z</time>
      </trkpt>
      <trkpt lat="46.63999" lon="6.05186">
        <ele>945.11</ele>
        <time>2018-03-07T10:12:40Z</time>
      </trkpt>
      <trkpt lat="46.63999" lon="6.05185">
        <ele>944.63</ele>
        <time>2018-03-07T10:12:41Z</time>
      </trkpt>
      <trkpt lat="46.63999" lon="6.05181">
        <ele>944.15</ele>
        <time>2018-03-07T10:12:43Z</time>
      </trkpt>
      <trkpt lat="46.64003" lon="6.05173">
        <ele>943.19</ele>
        <time>2018-03-07T10:12:50Z</time>
      </trkpt>
      <trkpt lat="46.6401" lon="6.05154">
        <ele>940.79</ele>
        <time>2018-03-07T10:13:00Z</time>
      </trkpt>
      <trkpt lat="46.64012" lon="6.05147">
        <ele>938.86</ele>
        <time>2018-03-07T10:13:04Z</time>
      </trkpt>
      <trkpt lat="46.64015" lon="6.05139">
        <ele>937.9</ele>
        <time>2018-03-07T10:13:10Z</time>
      </trkpt>
      <trkpt lat="46.64017" lon="6.05136">
        <ele>937.42</ele>
        <time>2018-03-07T10:13:13Z</time>
      </trkpt>
      <trkpt lat="46.64017" lon="6.05111">
        <ele>933.58</ele>
        <time>2018-03-07T10:13:26Z</time>
      </trkpt>
      <trkpt lat="46.64018" lon="6.0511">
        <ele>933.58</ele>
        <time>2018-03-07T10:13:27Z</time>
      </trkpt>
      <trkpt lat="46.64019" lon="6.05107">
        <ele>933.1</ele>
        <time>2018-03-07T10:13:29Z</time>
      </trkpt>
      <trkpt lat="46.64018" lon="6.05098">
        <ele>932.62</ele>
        <time>2018-03-07T10:13:32Z</time>
      </trkpt>
      <trkpt lat="46.64017" lon="6.05085">
        <ele>932.14</ele>
        <time>2018-03-07T10:13:36Z</time>
      </trkpt>
      <trkpt lat="46.64017" lon="6.0507">
        <ele>931.17</ele>
        <time>2018-03-07T10:13:41Z</time>
      </trkpt>
      <trkpt lat="46.64018" lon="6.0503">
        <ele>928.29</ele>
        <time>2018-03-07T10:13:55Z</time>
      </trkpt>
      <trkpt lat="46.64019" lon="6.05021">
        <ele>927.81</ele>
        <time>2018-03-07T10:13:58Z</time>
      </trkpt>
      <trkpt lat="46.6402" lon="6.05017">
        <ele>926.85</ele>
        <time>2018-03-07T10:13:59Z</time>
      </trkpt>
      <trkpt lat="46.64021" lon="6.05009">
        <ele>926.85</ele>
        <time>2018-03-07T10:14:02Z</time>
      </trkpt>
      <trkpt lat="46.64021" lon="6.04983">
        <ele>925.89</ele>
        <time>2018-03-07T10:14:14Z</time>
      </trkpt>
      <trkpt lat="46.64012" lon="6.04931">
        <ele>924.93</ele>
        <time>2018-03-07T10:14:26Z</time>
      </trkpt>
      <trkpt lat="46.64008" lon="6.04917">
        <ele>923.96</ele>
        <time>2018-03-07T10:14:38Z</time>
      </trkpt>
      <trkpt lat="46.64008" lon="6.04915">
        <ele>923.48</ele>
        <time>2018-03-07T10:14:42Z</time>
      </trkpt>
      <trkpt lat="46.64002" lon="6.04886">
        <ele>922.04</ele>
        <time>2018-03-07T10:14:50Z</time>
      </trkpt>
      <trkpt lat="46.63995" lon="6.04864">
        <ele>920.6</ele>
        <time>2018-03-07T10:15:01Z</time>
      </trkpt>
      <trkpt lat="46.6399" lon="6.04839">
        <ele>916.75</ele>
        <time>2018-03-07T10:15:13Z</time>
      </trkpt>
      <trkpt lat="46.63988" lon="6.0483">
        <ele>915.31</ele>
        <time>2018-03-07T10:15:17Z</time>
      </trkpt>
      <trkpt lat="46.63986" lon="6.048">
        <ele>912.43</ele>
        <time>2018-03-07T10:15:31Z</time>
      </trkpt>
      <trkpt lat="46.63984" lon="6.04775">
        <ele>910.51</ele>
        <time>2018-03-07T10:15:43Z</time>
      </trkpt>
      <trkpt lat="46.63981" lon="6.04754">
        <ele>909.06</ele>
        <time>2018-03-07T10:15:52Z</time>
      </trkpt>
      <trkpt lat="46.63975" lon="6.04722">
        <ele>906.66</ele>
        <time>2018-03-07T10:16:06Z</time>
      </trkpt>
      <trkpt lat="46.63968" lon="6.04692">
        <ele>905.22</ele>
        <time>2018-03-07T10:16:21Z</time>
      </trkpt>
      <trkpt lat="46.63967" lon="6.04689">
        <ele>904.26</ele>
        <time>2018-03-07T10:16:23Z</time>
      </trkpt>
      <trkpt lat="46.63965" lon="6.0468">
        <ele>903.78</ele>
        <time>2018-03-07T10:16:28Z</time>
      </trkpt>
      <trkpt lat="46.63962" lon="6.0466">
        <ele>902.82</ele>
        <time>2018-03-07T10:16:39Z</time>
      </trkpt>
      <trkpt lat="46.63963" lon="6.04651">
        <ele>901.85</ele>
        <time>2018-03-07T10:16:43Z</time>
      </trkpt>
      <trkpt lat="46.63961" lon="6.04625">
        <ele>900.89</ele>
        <time>2018-03-07T10:16:55Z</time>
      </trkpt>
      <trkpt lat="46.63964" lon="6.04615">
        <ele>899.45</ele>
        <time>2018-03-07T10:17:02Z</time>
      </trkpt>
      <trkpt lat="46.63965" lon="6.04605">
        <ele>898.49</ele>
        <time>2018-03-07T10:17:06Z</time>
      </trkpt>
      <trkpt lat="46.63965" lon="6.04591">
        <ele>898.01</ele>
        <time>2018-03-07T10:17:12Z</time>
      </trkpt>
      <trkpt lat="46.63968" lon="6.04576">
        <ele>897.53</ele>
        <time>2018-03-07T10:17:20Z</time>
      </trkpt>
      <trkpt lat="46.63969" lon="6.04571">
        <ele>897.05</ele>
        <time>2018-03-07T10:17:22Z</time>
      </trkpt>
      <trkpt lat="46.63969" lon="6.04545">
        <ele>896.09</ele>
        <time>2018-03-07T10:17:33Z</time>
      </trkpt>
      <trkpt lat="46.6397" lon="6.0453">
        <ele>895.61</ele>
        <time>2018-03-07T10:17:40Z</time>
      </trkpt>
      <trkpt lat="46.63972" lon="6.04521">
        <ele>895.61</ele>
        <time>2018-03-07T10:17:44Z</time>
      </trkpt>
      <trkpt lat="46.63977" lon="6.04501">
        <ele>894.64</ele>
        <time>2018-03-07T10:17:52Z</time>
      </trkpt>
      <trkpt lat="46.63978" lon="6.04498">
        <ele>894.64</ele>
        <time>2018-03-07T10:17:54Z</time>
      </trkpt>
      <trkpt lat="46.63979" lon="6.04485">
        <ele>893.68</ele>
        <time>2018-03-07T10:18:00Z</time>
      </trkpt>
      <trkpt lat="46.63979" lon="6.04469">
        <ele>892.72</ele>
        <time>2018-03-07T10:18:09Z</time>
      </trkpt>
      <trkpt lat="46.6398" lon="6.04444">
        <ele>891.76</ele>
        <time>2018-03-07T10:18:21Z</time>
      </trkpt>
      <trkpt lat="46.63982" lon="6.04425">
        <ele>890.8</ele>
        <time>2018-03-07T10:18:30Z</time>
      </trkpt>
      <trkpt lat="46.63981" lon="6.04415">
        <ele>890.8</ele>
        <time>2018-03-07T10:18:33Z</time>
      </trkpt>
      <trkpt lat="46.63984" lon="6.04409">
        <ele>890.8</ele>
        <time>2018-03-07T10:18:40Z</time>
      </trkpt>
      <trkpt lat="46.63988" lon="6.04407">
        <ele>890.32</ele>
        <time>2018-03-07T10:18:47Z</time>
      </trkpt>
      <trkpt lat="46.63989" lon="6.04399">
        <ele>890.32</ele>
        <time>2018-03-07T10:18:51Z</time>
      </trkpt>
      <trkpt lat="46.63992" lon="6.04392">
        <ele>890.32</ele>
        <time>2018-03-07T10:18:54Z</time>
      </trkpt>
      <trkpt lat="46.63996" lon="6.04379">
        <ele>889.36</ele>
        <time>2018-03-07T10:19:01Z</time>
      </trkpt>
      <trkpt lat="46.64001" lon="6.04361">
        <ele>888.88</ele>
        <time>2018-03-07T10:19:14Z</time>
      </trkpt>
      <trkpt lat="46.64002" lon="6.04357">
        <ele>889.36</ele>
        <time>2018-03-07T10:19:16Z</time>
      </trkpt>
      <trkpt lat="46.64003" lon="6.04329">
        <ele>889.36</ele>
        <time>2018-03-07T10:19:26Z</time>
      </trkpt>
      <trkpt lat="46.64004" lon="6.04326">
        <ele>888.88</ele>
        <time>2018-03-07T10:19:28Z</time>
      </trkpt>
      <trkpt lat="46.64004" lon="6.04322">
        <ele>888.88</ele>
        <time>2018-03-07T10:19:31Z</time>
      </trkpt>
      <trkpt lat="46.64007" lon="6.04319">
        <ele>888.88</ele>
        <time>2018-03-07T10:19:35Z</time>
      </trkpt>
      <trkpt lat="46.64009" lon="6.04314">
        <ele>887.91</ele>
        <time>2018-03-07T10:19:39Z</time>
      </trkpt>
      <trkpt lat="46.64017" lon="6.04312">
        <ele>886.95</ele>
        <time>2018-03-07T10:19:50Z</time>
      </trkpt>
      <trkpt lat="46.64018" lon="6.0431">
        <ele>886.47</ele>
        <time>2018-03-07T10:19:52Z</time>
      </trkpt>
      <trkpt lat="46.6402" lon="6.04298">
        <ele>885.51</ele>
        <time>2018-03-07T10:19:58Z</time>
      </trkpt>
      <trkpt lat="46.64023" lon="6.04286">
        <ele>884.55</ele>
        <time>2018-03-07T10:20:01Z</time>
      </trkpt>
      <trkpt lat="46.64024" lon="6.04246">
        <ele>882.63</ele>
        <time>2018-03-07T10:20:11Z</time>
      </trkpt>
      <trkpt lat="46.64032" lon="6.04233">
        <ele>881.67</ele>
        <time>2018-03-07T10:20:22Z</time>
      </trkpt>
      <trkpt lat="46.64032" lon="6.0423">
        <ele>881.67</ele>
        <time>2018-03-07T10:20:24Z</time>
      </trkpt>
      <trkpt lat="46.64034" lon="6.0423">
        <ele>881.19</ele>
        <time>2018-03-07T10:20:26Z</time>
      </trkpt>
      <trkpt lat="46.64037" lon="6.04222">
        <ele>880.71</ele>
        <time>2018-03-07T10:20:31Z</time>
      </trkpt>
      <trkpt lat="46.64039" lon="6.0422">
        <ele>880.71</ele>
        <time>2018-03-07T10:20:34Z</time>
      </trkpt>
      <trkpt lat="46.64045" lon="6.04204">
        <ele>878.78</ele>
        <time>2018-03-07T10:20:46Z</time>
      </trkpt>
      <trkpt lat="46.64048" lon="6.04196">
        <ele>877.34</ele>
        <time>2018-03-07T10:20:55Z</time>
      </trkpt>
      <trkpt lat="46.6405" lon="6.04176">
        <ele>875.9</ele>
        <time>2018-03-07T10:21:04Z</time>
      </trkpt>
      <trkpt lat="46.64053" lon="6.04163">
        <ele>873.98</ele>
        <time>2018-03-07T10:21:13Z</time>
      </trkpt>
      <trkpt lat="46.64053" lon="6.04152">
        <ele>873.01</ele>
        <time>2018-03-07T10:21:19Z</time>
      </trkpt>
      <trkpt lat="46.64052" lon="6.04139">
        <ele>872.53</ele>
        <time>2018-03-07T10:21:25Z</time>
      </trkpt>
      <trkpt lat="46.64051" lon="6.04122">
        <ele>872.05</ele>
        <time>2018-03-07T10:21:34Z</time>
      </trkpt>
      <trkpt lat="46.64051" lon="6.04118">
        <ele>872.05</ele>
        <time>2018-03-07T10:21:39Z</time>
      </trkpt>
      <trkpt lat="46.64048" lon="6.04096">
        <ele>870.61</ele>
        <time>2018-03-07T10:21:49Z</time>
      </trkpt>
      <trkpt lat="46.64046" lon="6.04084">
        <ele>869.17</ele>
        <time>2018-03-07T10:21:56Z</time>
      </trkpt>
      <trkpt lat="46.64043" lon="6.04061">
        <ele>867.25</ele>
        <time>2018-03-07T10:22:09Z</time>
      </trkpt>
      <trkpt lat="46.64048" lon="6.04055">
        <ele>867.25</ele>
        <time>2018-03-07T10:22:18Z</time>
      </trkpt>
      <trkpt lat="46.6406" lon="6.04038">
        <ele>864.84</ele>
        <time>2018-03-07T10:22:32Z</time>
      </trkpt>
      <trkpt lat="46.64061" lon="6.04019">
        <ele>864.36</ele>
        <time>2018-03-07T10:22:35Z</time>
      </trkpt>
      <trkpt lat="46.6406" lon="6.03975">
        <ele>862.92</ele>
        <time>2018-03-07T10:22:44Z</time>
      </trkpt>
      <trkpt lat="46.64065" lon="6.03959">
        <ele>860.04</ele>
        <time>2018-03-07T10:22:52Z</time>
      </trkpt>
      <trkpt lat="46.64067" lon="6.03939">
        <ele>858.11</ele>
        <time>2018-03-07T10:23:02Z</time>
      </trkpt>
      <trkpt lat="46.64067" lon="6.03915">
        <ele>856.19</ele>
        <time>2018-03-07T10:23:15Z</time>
      </trkpt>
      <trkpt lat="46.64067" lon="6.0391">
        <ele>855.71</ele>
        <time>2018-03-07T10:23:22Z</time>
      </trkpt>
      <trkpt lat="46.64067" lon="6.03897">
        <ele>853.79</ele>
        <time>2018-03-07T10:23:31Z</time>
      </trkpt>
      <trkpt lat="46.6407" lon="6.03883">
        <ele>853.31</ele>
        <time>2018-03-07T10:23:36Z</time>
      </trkpt>
      <trkpt lat="46.64074" lon="6.03859">
        <ele>851.38</ele>
        <time>2018-03-07T10:23:43Z</time>
      </trkpt>
      <trkpt lat="46.64093" lon="6.03857">
        <ele>849.46</ele>
        <time>2018-03-07T10:23:58Z</time>
      </trkpt>
      <trkpt lat="46.64098" lon="6.03862">
        <ele>848.5</ele>
        <time>2018-03-07T10:24:04Z</time>
      </trkpt>
      <trkpt lat="46.6411" lon="6.03875">
        <ele>847.06</ele>
        <time>2018-03-07T10:24:13Z</time>
      </trkpt>
      <trkpt lat="46.64126" lon="6.03897">
        <ele>845.62</ele>
        <time>2018-03-07T10:24:26Z</time>
      </trkpt>
      <trkpt lat="46.64134" lon="6.03905">
        <ele>843.69</ele>
        <time>2018-03-07T10:24:35Z</time>
      </trkpt>
      <trkpt lat="46.64143" lon="6.03904">
        <ele>842.73</ele>
        <time>2018-03-07T10:24:41Z</time>
      </trkpt>
      <trkpt lat="46.64146" lon="6.03899">
        <ele>841.29</ele>
        <time>2018-03-07T10:24:46Z</time>
      </trkpt>
      <trkpt lat="46.64148" lon="6.03898">
        <ele>839.37</ele>
        <time>2018-03-07T10:24:53Z</time>
      </trkpt>
      <trkpt lat="46.64143" lon="6.03874">
        <ele>836.96</ele>
        <time>2018-03-07T10:25:05Z</time>
      </trkpt>
      <trkpt lat="46.64137" lon="6.0386">
        <ele>835.04</ele>
        <time>2018-03-07T10:25:15Z</time>
      </trkpt>
      <trkpt lat="46.64132" lon="6.03852">
        <ele>834.08</ele>
        <time>2018-03-07T10:25:20Z</time>
      </trkpt>
      <trkpt lat="46.64124" lon="6.03846">
        <ele>832.16</ele>
        <time>2018-03-07T10:25:33Z</time>
      </trkpt>
      <trkpt lat="46.64116" lon="6.03838">
        <ele>829.76</ele>
        <time>2018-03-07T10:25:43Z</time>
      </trkpt>
      <trkpt lat="46.64107" lon="6.03827">
        <ele>828.31</ele>
        <time>2018-03-07T10:25:54Z</time>
      </trkpt>
      <trkpt lat="46.64101" lon="6.03818">
        <ele>826.87</ele>
        <time>2018-03-07T10:26:04Z</time>
      </trkpt>
      <trkpt lat="46.64092" lon="6.03803">
        <ele>825.91</ele>
        <time>2018-03-07T10:26:14Z</time>
      </trkpt>
      <trkpt lat="46.64082" lon="6.0378">
        <ele>824.95</ele>
        <time>2018-03-07T10:26:24Z</time>
      </trkpt>
      <trkpt lat="46.64076" lon="6.03751">
        <ele>824.47</ele>
        <time>2018-03-07T10:26:36Z</time>
      </trkpt>
      <trkpt lat="46.64075" lon="6.03728">
        <ele>823.03</ele>
        <time>2018-03-07T10:26:48Z</time>
      </trkpt>
      <trkpt lat="46.64068" lon="6.03705">
        <ele>821.58</ele>
        <time>2018-03-07T10:26:59Z</time>
      </trkpt>
      <trkpt lat="46.64065" lon="6.03697">
        <ele>820.62</ele>
        <time>2018-03-07T10:27:03Z</time>
      </trkpt>
      <trkpt lat="46.64054" lon="6.03683">
        <ele>819.18</ele>
        <time>2018-03-07T10:27:15Z</time>
      </trkpt>
      <trkpt lat="46.64042" lon="6.03666">
        <ele>817.74</ele>
        <time>2018-03-07T10:27:26Z</time>
      </trkpt>
      <trkpt lat="46.64022" lon="6.03646">
        <ele>814.85</ele>
        <time>2018-03-07T10:27:37Z</time>
      </trkpt>
      <trkpt lat="46.64007" lon="6.03635">
        <ele>812.45</ele>
        <time>2018-03-07T10:27:47Z</time>
      </trkpt>
      <trkpt lat="46.63996" lon="6.03623">
        <ele>810.05</ele>
        <time>2018-03-07T10:27:58Z</time>
      </trkpt>
      <trkpt lat="46.63993" lon="6.03618">
        <ele>810.53</ele>
        <time>2018-03-07T10:28:00Z</time>
      </trkpt>
      <trkpt lat="46.63991" lon="6.03614">
        <ele>810.05</ele>
        <time>2018-03-07T10:28:02Z</time>
      </trkpt>
      <trkpt lat="46.63981" lon="6.03596">
        <ele>808.13</ele>
        <time>2018-03-07T10:28:14Z</time>
      </trkpt>
      <trkpt lat="46.6398" lon="6.03596">
        <ele>807.64</ele>
        <time>2018-03-07T10:28:16Z</time>
      </trkpt>
      <trkpt lat="46.63979" lon="6.03598">
        <ele>807.64</ele>
        <time>2018-03-07T10:28:18Z</time>
      </trkpt>
      <trkpt lat="46.63975" lon="6.03589">
        <ele>807.16</ele>
        <time>2018-03-07T10:28:21Z</time>
      </trkpt>
      <trkpt lat="46.63972" lon="6.03584">
        <ele>806.2</ele>
        <time>2018-03-07T10:28:24Z</time>
      </trkpt>
      <trkpt lat="46.63966" lon="6.03573">
        <ele>805.24</ele>
        <time>2018-03-07T10:28:30Z</time>
      </trkpt>
      <trkpt lat="46.63958" lon="6.03567">
        <ele>805.24</ele>
        <time>2018-03-07T10:28:35Z</time>
      </trkpt>
      <trkpt lat="46.63942" lon="6.03558">
        <ele>803.32</ele>
        <time>2018-03-07T10:28:47Z</time>
      </trkpt>
      <trkpt lat="46.63934" lon="6.03555">
        <ele>802.84</ele>
        <time>2018-03-07T10:28:55Z</time>
      </trkpt>
      <trkpt lat="46.63915" lon="6.03555">
        <ele>801.4</ele>
        <time>2018-03-07T10:29:03Z</time>
      </trkpt>
      <trkpt lat="46.639" lon="6.03553">
        <ele>800.44</ele>
        <time>2018-03-07T10:29:10Z</time>
      </trkpt>
      <trkpt lat="46.63883" lon="6.03556">
        <ele>799.95</ele>
        <time>2018-03-07T10:29:21Z</time>
      </trkpt>
      <trkpt lat="46.6388" lon="6.03557">
        <ele>799.95</ele>
        <time>2018-03-07T10:29:22Z</time>
      </trkpt>
      <trkpt lat="46.63872" lon="6.03557">
        <ele>798.51</ele>
        <time>2018-03-07T10:29:29Z</time>
      </trkpt>
      <trkpt lat="46.63865" lon="6.0356">
        <ele>798.03</ele>
        <time>2018-03-07T10:29:33Z</time>
      </trkpt>
      <trkpt lat="46.63848" lon="6.03555">
        <ele>796.11</ele>
        <time>2018-03-07T10:29:44Z</time>
      </trkpt>
      <trkpt lat="46.63839" lon="6.03544">
        <ele>795.15</ele>
        <time>2018-03-07T10:29:52Z</time>
      </trkpt>
      <trkpt lat="46.63836" lon="6.03525">
        <ele>794.19</ele>
        <time>2018-03-07T10:30:02Z</time>
      </trkpt>
      <trkpt lat="46.63836" lon="6.03519">
        <ele>795.15</ele>
        <time>2018-03-07T10:30:05Z</time>
      </trkpt>
      <trkpt lat="46.6383" lon="6.03498">
        <ele>793.71</ele>
        <time>2018-03-07T10:30:10Z</time>
      </trkpt>
      <trkpt lat="46.63823" lon="6.03479">
        <ele>793.22</ele>
        <time>2018-03-07T10:30:22Z</time>
      </trkpt>
      <trkpt lat="46.63822" lon="6.03467">
        <ele>792.26</ele>
        <time>2018-03-07T10:30:35Z</time>
      </trkpt>
      <trkpt lat="46.63818" lon="6.03441">
        <ele>791.3</ele>
        <time>2018-03-07T10:30:42Z</time>
      </trkpt>
      <trkpt lat="46.63822" lon="6.03435">
        <ele>791.3</ele>
        <time>2018-03-07T10:30:46Z</time>
      </trkpt>
      <trkpt lat="46.63806" lon="6.03408">
        <ele>789.86</ele>
        <time>2018-03-07T10:31:03Z</time>
      </trkpt>
      <trkpt lat="46.63801" lon="6.03387">
        <ele>788.9</ele>
        <time>2018-03-07T10:31:10Z</time>
      </trkpt>
      <trkpt lat="46.63796" lon="6.03356">
        <ele>787.46</ele>
        <time>2018-03-07T10:31:25Z</time>
      </trkpt>
      <trkpt lat="46.63795" lon="6.03346">
        <ele>787.46</ele>
        <time>2018-03-07T10:31:32Z</time>
      </trkpt>
      <trkpt lat="46.63796" lon="6.03325">
        <ele>787.94</ele>
        <time>2018-03-07T10:31:40Z</time>
      </trkpt>
      <trkpt lat="46.63793" lon="6.03289">
        <ele>787.46</ele>
        <time>2018-03-07T10:31:55Z</time>
      </trkpt>
      <trkpt lat="46.63798" lon="6.03282">
        <ele>787.94</ele>
        <time>2018-03-07T10:32:00Z</time>
      </trkpt>
      <trkpt lat="46.63815" lon="6.03256">
        <ele>787.46</ele>
        <time>2018-03-07T10:32:12Z</time>
      </trkpt>
      <trkpt lat="46.63828" lon="6.03244">
        <ele>786.5</ele>
        <time>2018-03-07T10:32:22Z</time>
      </trkpt>
      <trkpt lat="46.6384" lon="6.03232">
        <ele>784.57</ele>
        <time>2018-03-07T10:32:33Z</time>
      </trkpt>
      <trkpt lat="46.63843" lon="6.03229">
        <ele>784.57</ele>
        <time>2018-03-07T10:32:38Z</time>
      </trkpt>
      <trkpt lat="46.63843" lon="6.03228">
        <ele>784.09</ele>
        <time>2018-03-07T10:32:39Z</time>
      </trkpt>
      <trkpt lat="46.63845" lon="6.03225">
        <ele>784.09</ele>
        <time>2018-03-07T10:32:40Z</time>
      </trkpt>
      <trkpt lat="46.63848" lon="6.03219">
        <ele>784.09</ele>
        <time>2018-03-07T10:32:45Z</time>
      </trkpt>
      <trkpt lat="46.63847" lon="6.03209">
        <ele>784.09</ele>
        <time>2018-03-07T10:32:50Z</time>
      </trkpt>
      <trkpt lat="46.63847" lon="6.03201">
        <ele>784.57</ele>
        <time>2018-03-07T10:32:54Z</time>
      </trkpt>
      <trkpt lat="46.63844" lon="6.03196">
        <ele>783.61</ele>
        <time>2018-03-07T10:32:57Z</time>
      </trkpt>
      <trkpt lat="46.63834" lon="6.03186">
        <ele>782.65</ele>
        <time>2018-03-07T10:33:05Z</time>
      </trkpt>
      <trkpt lat="46.63832" lon="6.03182">
        <ele>782.65</ele>
        <time>2018-03-07T10:33:07Z</time>
      </trkpt>
      <trkpt lat="46.6382" lon="6.03179">
        <ele>783.61</ele>
        <time>2018-03-07T10:33:16Z</time>
      </trkpt>
      <trkpt lat="46.63816" lon="6.03168">
        <ele>784.57</ele>
        <time>2018-03-07T10:33:22Z</time>
      </trkpt>
      <trkpt lat="46.63802" lon="6.03138">
        <ele>786.02</ele>
        <time>2018-03-07T10:33:39Z</time>
      </trkpt>
      <trkpt lat="46.63801" lon="6.03135">
        <ele>786.5</ele>
        <time>2018-03-07T10:33:42Z</time>
      </trkpt>
      <trkpt lat="46.63794" lon="6.0312">
        <ele>786.98</ele>
        <time>2018-03-07T10:33:51Z</time>
      </trkpt>
      <trkpt lat="46.6379" lon="6.03111">
        <ele>788.42</ele>
        <time>2018-03-07T10:34:02Z</time>
      </trkpt>
      <trkpt lat="46.63783" lon="6.03096">
        <ele>789.86</ele>
        <time>2018-03-07T10:34:14Z</time>
      </trkpt>
      <trkpt lat="46.63777" lon="6.03082">
        <ele>790.34</ele>
        <time>2018-03-07T10:34:21Z</time>
      </trkpt>
      <trkpt lat="46.63775" lon="6.03078">
        <ele>790.82</ele>
        <time>2018-03-07T10:34:24Z</time>
      </trkpt>
      <trkpt lat="46.63768" lon="6.03068">
        <ele>792.26</ele>
        <time>2018-03-07T10:34:30Z</time>
      </trkpt>
      <trkpt lat="46.63762" lon="6.0306">
        <ele>792.26</ele>
        <time>2018-03-07T10:34:36Z</time>
      </trkpt>
      <trkpt lat="46.63759" lon="6.03055">
        <ele>792.74</ele>
        <time>2018-03-07T10:34:39Z</time>
      </trkpt>
      <trkpt lat="46.63756" lon="6.03044">
        <ele>793.22</ele>
        <time>2018-03-07T10:34:46Z</time>
      </trkpt>
      <trkpt lat="46.63771" lon="6.03034">
        <ele>794.19</ele>
        <time>2018-03-07T10:34:57Z</time>
      </trkpt>
      <trkpt lat="46.63781" lon="6.03029">
        <ele>794.19</ele>
        <time>2018-03-07T10:35:04Z</time>
      </trkpt>
      <trkpt lat="46.63789" lon="6.03025">
        <ele>794.19</ele>
        <time>2018-03-07T10:35:09Z</time>
      </trkpt>
      <trkpt lat="46.63799" lon="6.03007">
        <ele>795.63</ele>
        <time>2018-03-07T10:35:22Z</time>
      </trkpt>
      <trkpt lat="46.63801" lon="6.03005">
        <ele>795.15</ele>
        <time>2018-03-07T10:35:24Z</time>
      </trkpt>
      <trkpt lat="46.63805" lon="6.02982">
        <ele>795.15</ele>
        <time>2018-03-07T10:35:35Z</time>
      </trkpt>
      <trkpt lat="46.63813" lon="6.02958">
        <ele>796.11</ele>
        <time>2018-03-07T10:35:47Z</time>
      </trkpt>
      <trkpt lat="46.63817" lon="6.02953">
        <ele>796.59</ele>
        <time>2018-03-07T10:35:51Z</time>
      </trkpt>
      <trkpt lat="46.63829" lon="6.02924">
        <ele>796.11</ele>
        <time>2018-03-07T10:36:07Z</time>
      </trkpt>
      <trkpt lat="46.63837" lon="6.02905">
        <ele>797.07</ele>
        <time>2018-03-07T10:36:21Z</time>
      </trkpt>
      <trkpt lat="46.63837" lon="6.02903">
        <ele>796.59</ele>
        <time>2018-03-07T10:36:22Z</time>
      </trkpt>
      <trkpt lat="46.63838" lon="6.02894">
        <ele>798.03</ele>
        <time>2018-03-07T10:36:27Z</time>
      </trkpt>
      <trkpt lat="46.63835" lon="6.0289">
        <ele>798.51</ele>
        <time>2018-03-07T10:36:29Z</time>
      </trkpt>
      <trkpt lat="46.63829" lon="6.02892">
        <ele>798.99</ele>
        <time>2018-03-07T10:36:34Z</time>
      </trkpt>
      <trkpt lat="46.63822" lon="6.02885">
        <ele>800.44</ele>
        <time>2018-03-07T10:36:46Z</time>
      </trkpt>
      <trkpt lat="46.63819" lon="6.02882">
        <ele>801.88</ele>
        <time>2018-03-07T10:36:50Z</time>
      </trkpt>
      <trkpt lat="46.63816" lon="6.02878">
        <ele>802.84</ele>
        <time>2018-03-07T10:37:08Z</time>
      </trkpt>
      <trkpt lat="46.63816" lon="6.02878">
        <ele>801.88</ele>
        <time>2018-03-07T10:37:25Z</time>
      </trkpt>
      <trkpt lat="46.63816" lon="6.02878">
        <ele>794.19</ele>
        <time>2018-03-07T10:37:26Z</time>
      </trkpt>
      <trkpt lat="46.63816" lon="6.02878">
        <ele>798.51</ele>
        <time>2018-03-07T10:37:27Z</time>
      </trkpt>
      <trkpt lat="46.63816" lon="6.02878">
        <ele>803.32</ele>
        <time>2018-03-07T10:37:28Z</time>
      </trkpt>
      <trkpt lat="46.63816" lon="6.02876">
        <ele>798.03</ele>
        <time>2018-03-07T10:37:40Z</time>
      </trkpt>
      <trkpt lat="46.63816" lon="6.02876">
        <ele>805.24</ele>
        <time>2018-03-07T10:37:47Z</time>
      </trkpt>
      <trkpt lat="46.63816" lon="6.02876">
        <ele>799.95</ele>
        <time>2018-03-07T10:37:48Z</time>
      </trkpt>
      <trkpt lat="46.63816" lon="6.02876">
        <ele>802.84</ele>
        <time>2018-03-07T10:37:49Z</time>
      </trkpt>
      <trkpt lat="46.63816" lon="6.02876">
        <ele>799.47</ele>
        <time>2018-03-07T10:37:50Z</time>
      </trkpt>
      <trkpt lat="46.63815" lon="6.02876">
        <ele>803.8</ele>
        <time>2018-03-07T10:37:51Z</time>
      </trkpt>
      <trkpt lat="46.63815" lon="6.02876">
        <ele>799.95</ele>
        <time>2018-03-07T10:38:00Z</time>
      </trkpt>
      <trkpt lat="46.63815" lon="6.02876">
        <ele>805.72</ele>
        <time>2018-03-07T10:38:01Z</time>
      </trkpt>
      <trkpt lat="46.63815" lon="6.02876">
        <ele>802.36</ele>
        <time>2018-03-07T10:38:02Z</time>
      </trkpt>
      <trkpt lat="46.63815" lon="6.02876">
        <ele>803.32</ele>
        <time>2018-03-07T10:38:03Z</time>
      </trkpt>
      <trkpt lat="46.63815" lon="6.02876">
        <ele>800.44</ele>
        <time>2018-03-07T10:38:04Z</time>
      </trkpt>
      <trkpt lat="46.63815" lon="6.02876">
        <ele>802.36</ele>
        <time>2018-03-07T10:38:06Z</time>
      </trkpt>
      <trkpt lat="46.63812" lon="6.0287">
        <ele>802.36</ele>
        <time>2018-03-07T10:40:04Z</time>
      </trkpt>
      <trkpt lat="46.63825" lon="6.02875">
        <ele>802.36</ele>
        <time>2018-03-07T10:40:30Z</time>
      </trkpt>
      <trkpt lat="46.63826" lon="6.02877">
        <ele>798.99</ele>
        <time>2018-03-07T10:40:35Z</time>
      </trkpt>
      <trkpt lat="46.63826" lon="6.02877">
        <ele>801.4</ele>
        <time>2018-03-07T10:40:36Z</time>
      </trkpt>
    </trkseg>
  </trk>
</gpx>